Observation data for Fort McKavett on 04/22/2019      Previous  Date  Next       Current Mesonet Observations  Soil Data  Daily Summary Page  Observations in Plain Language
KMC1 220500Z 14005KT 20/17 A2997 RMK A01 T02040165  RH  079%=      5-min Rain = 0
KMC1 220501Z 13007KT 20/17 A2997 RMK A01 T02030165  RH  079%=      5-min Rain = 0
KMC1 220502Z 13006KT 20/17 A2997 RMK A01 T02020166  RH  079%=      5-min Rain = 0
KMC1 220503Z 13007KT 20/17 A2997 RMK A01 T02020166  RH  080%=      5-min Rain = 0
KMC1 220504Z 13009KT 20/17 A2997 RMK A01 T02020166  RH  080%=      5-min Rain = 0
KMC1 220505Z 13009KT 20/17 A2997 RMK A01 T02010166  RH  080%=      5-min Rain = 0
KMC1 220506Z 15005KT 20/17 A2997 RMK A01 T02010166  RH  080%=      5-min Rain = 0
KMC1 220507Z 14009KT 20/17 A2997 RMK A01 T02020166  RH  080%=      5-min Rain = 0
KMC1 220508Z 13006KT 20/17 A2997 RMK A01 T02020167  RH  080%=      5-min Rain = 0
KMC1 220509Z 13006KT 20/17 A2997 RMK A01 T02020167  RH  080%=      5-min Rain = 0
KMC1 220510Z 13006KT 20/17 A2997 RMK A01 T02020167  RH  080%=      5-min Rain = 0
KMC1 220511Z 14008KT 20/17 A2997 RMK A01 T02010167  RH  080%=      5-min Rain = 0
KMC1 220512Z 14008KT 20/17 A2997 RMK A01 T02020168  RH  081%=      5-min Rain = 0
KMC1 220513Z 14006KT 20/17 A2997 RMK A01 T02020167  RH  081%=      5-min Rain = 0
KMC1 220514Z 14005KT 20/17 A2997 RMK A01 T02020167  RH  081%=      5-min Rain = 0
KMC1 220515Z 14006KT 20/17 A2997 RMK A01 T02010167  RH  081%=      5-min Rain = 0
KMC1 220516Z 13005KT 20/17 A2997 RMK A01 T02010167  RH  081%=      5-min Rain = 0
KMC1 220517Z 14006KT 20/17 A2997 RMK A01 T02000167  RH  081%=      5-min Rain = 0
KMC1 220518Z 13008KT 20/17 A2997 RMK A01 T02000168  RH  082%=      5-min Rain = 0
KMC1 220519Z 14006G13KT 20/17 A2997 RMK A01 T02000168  RH  082%=      5-min Rain = 0
KMC1 220520Z 14009KT 20/17 A2997 RMK A01 T02000168  RH  082%=      5-min Rain = 0
KMC1 220521Z 14005KT 20/17 A2997 RMK A01 T02000168  RH  082%=      5-min Rain = 0
KMC1 220522Z 14006KT 20/17 A2997 RMK A01 T02000168  RH  082%=      5-min Rain = 0
KMC1 220523Z 13006KT 20/17 A2997 RMK A01 T02000169  RH  082%=      5-min Rain = 0
KMC1 220524Z 15005KT 20/17 A2997 RMK A01 T02000169  RH  082%=      5-min Rain = 0
KMC1 220525Z 14006KT 20/17 A2997 RMK A01 T01990169  RH  082%=      5-min Rain = 0
KMC1 220526Z 14007KT 20/17 A2997 RMK A01 T01990169  RH  083%=      5-min Rain = 0
KMC1 220527Z 14009KT 20/17 A2997 RMK A01 T01990170  RH  083%=      5-min Rain = 0
KMC1 220528Z 13008KT 20/17 A2997 RMK A01 T01990170  RH  083%=      5-min Rain = 0
KMC1 220529Z 14008G14KT 20/17 A2997 RMK A01 T02000170  RH  083%=      5-min Rain = 0
KMC1 220530Z 15009KT 20/17 A2997 RMK A01 T02000170  RH  083%=      5-min Rain = 0
KMC1 220531Z 14007KT 20/17 A2997 RMK A01 T02000170  RH  083%=      5-min Rain = 0
KMC1 220532Z 14006KT 20/17 A2997 RMK A01 T02000170  RH  083%=      5-min Rain = 0
KMC1 220533Z 14007KT 20/17 A2997 RMK A01 T02000170  RH  083%=      5-min Rain = 0
KMC1 220534Z 14006KT 20/17 A2997 RMK A01 T01990170  RH  083%=      5-min Rain = 0
KMC1 220535Z 14005KT 20/17 A2997 RMK A01 T01990170  RH  083%=      5-min Rain = 0
KMC1 220536Z 13005KT 20/17 A2997 RMK A01 T01990170  RH  084%=      5-min Rain = 0
KMC1 220537Z 13005KT 20/17 A2997 RMK A01 T01980170  RH  084%=      5-min Rain = 0
KMC1 220538Z 12005KT 20/17 A2997 RMK A01 T01980170  RH  084%=      5-min Rain = 0
KMC1 220539Z 13007KT 20/17 A2997 RMK A01 T01980170  RH  084%=      5-min Rain = 0
KMC1 220540Z 13007KT 20/17 A2997 RMK A01 T01980170  RH  084%=      5-min Rain = 0
KMC1 220541Z 13010KT 20/17 A2997 RMK A01 T01980170  RH  084%=      5-min Rain = 0
KMC1 220542Z 13008KT 20/17 A2997 RMK A01 T01980169  RH  084%=      5-min Rain = 0
KMC1 220543Z 14006KT 20/17 A2997 RMK A01 T01980170  RH  084%=      5-min Rain = 0
KMC1 220544Z 13006KT 20/17 A2997 RMK A01 T01980170  RH  084%=      5-min Rain = 0
KMC1 220545Z 12007KT 20/17 A2997 RMK A01 T01970169  RH  084%=      5-min Rain = 0
KMC1 220546Z 13007KT 20/17 A2997 RMK A01 T01970169  RH  084%=      5-min Rain = 0
KMC1 220547Z 14006KT 20/17 A2997 RMK A01 T01970169  RH  084%=      5-min Rain = 0
KMC1 220548Z 12006KT 20/17 A2997 RMK A01 T01960169  RH  084%=      5-min Rain = 0
KMC1 220549Z 12005KT 20/17 A2997 RMK A01 T01960169  RH  084%=      5-min Rain = 0
KMC1 220550Z 12007KT 20/17 A2997 RMK A01 T01960169  RH  085%=      5-min Rain = 0
KMC1 220551Z 13009G14KT 20/17 A2997 RMK A01 T01960169  RH  085%=      5-min Rain = 0
KMC1 220552Z 14007KT 20/17 A2997 RMK A01 T01960169  RH  085%=      5-min Rain = 0
KMC1 220553Z 13007KT 20/17 A2997 RMK A01 T01950169  RH  085%=      5-min Rain = 0
KMC1 220554Z 15008G13KT 20/17 A2997 RMK A01 T01950169  RH  085%=      5-min Rain = 0
KMC1 220555Z 14009KT 20/17 A2997 RMK A01 T01950169  RH  085%=      5-min Rain = 0
KMC1 220556Z 15007KT 20/17 A2997 RMK A01 T01950169  RH  085%=      5-min Rain = 0
KMC1 220557Z 15009KT 20/17 A2997 RMK A01 T01950169  RH  085%=      5-min Rain = 0
KMC1 220558Z 13006G11KT 20/17 A2997 RMK A01 T01950168  RH  085%=      5-min Rain = 0
KMC1 220559Z 14007KT 20/17 A2997 RMK A01 T01950168  RH  085%=      5-min Rain = 0
KMC1 220600Z 14008KT 20/17 A2997 RMK A01 T01950168  RH  085%=      5-min Rain = 0
KMC1 220601Z 15006KT 20/17 A2997 RMK A01 T01950168  RH  085%=      5-min Rain = 0
KMC1 220602Z 14009G14KT 19/17 A2997 RMK A01 T01940168  RH  085%=      5-min Rain = 0
KMC1 220603Z 14007KT 19/17 A2997 RMK A01 T01940168  RH  085%=      5-min Rain = 0
KMC1 220604Z 15006KT 19/17 A2997 RMK A01 T01940168  RH  085%=      5-min Rain = 0
KMC1 220605Z 14005KT 19/17 A2997 RMK A01 T01930167  RH  085%=      5-min Rain = 0
KMC1 220606Z 14007G13KT 19/17 A2997 RMK A01 T01930167  RH  085%=      5-min Rain = 0
KMC1 220607Z 15011G16KT 19/17 A2997 RMK A01 T01930167  RH  085%=      5-min Rain = 0
KMC1 220608Z 15009KT 19/17 A2997 RMK A01 T01930167  RH  085%=      5-min Rain = 0
KMC1 220609Z 14009KT 19/17 A2997 RMK A01 T01930167  RH  085%=      5-min Rain = 0
KMC1 220610Z 15009KT 19/17 A2997 RMK A01 T01930167  RH  085%=      5-min Rain = 0
KMC1 220611Z 13006KT 19/17 A2997 RMK A01 T01930167  RH  085%=      5-min Rain = 0
KMC1 220612Z 15009KT 19/17 A2997 RMK A01 T01930167  RH  085%=      5-min Rain = 0
KMC1 220613Z 15007G13KT 19/17 A2997 RMK A01 T01930167  RH  085%=      5-min Rain = 0
KMC1 220614Z 15008G13KT 19/17 A2997 RMK A01 T01920167  RH  085%=      5-min Rain = 0
KMC1 220615Z 14008G15KT 19/17 A2997 RMK A01 T01920167  RH  085%=      5-min Rain = 0
KMC1 220616Z 15008KT 19/17 A2997 RMK A01 T01920166  RH  085%=      5-min Rain = 0
KMC1 220617Z 14010KT 19/17 A2997 RMK A01 T01920167  RH  085%=      5-min Rain = 0
KMC1 220618Z 14009KT 19/17 A2997 RMK A01 T01920167  RH  085%=      5-min Rain = 0
KMC1 220619Z 14007KT 19/17 A2997 RMK A01 T01920166  RH  085%=      5-min Rain = 0
KMC1 220620Z 14011KT 19/17 A2997 RMK A01 T01920166  RH  085%=      5-min Rain = 0
KMC1 220621Z 15009KT 19/17 A2997 RMK A01 T01910166  RH  085%=      5-min Rain = 0
KMC1 220622Z 14011KT 19/17 A2997 RMK A01 T01910165  RH  085%=      5-min Rain = 0
KMC1 220623Z 14010KT 19/17 A2997 RMK A01 T01910165  RH  085%=      5-min Rain = 0
KMC1 220624Z 15007KT 19/17 A2997 RMK A01 T01920166  RH  085%=      5-min Rain = 0
KMC1 220625Z 15007KT 19/17 A2997 RMK A01 T01910165  RH  085%=      5-min Rain = 0
KMC1 220626Z 14008KT 19/17 A2997 RMK A01 T01910165  RH  085%=      5-min Rain = 0
KMC1 220627Z 14009G14KT 19/17 A2997 RMK A01 T01900165  RH  085%=      5-min Rain = 0
KMC1 220628Z 13009KT 19/17 A2997 RMK A01 T01900165  RH  085%=      5-min Rain = 0
KMC1 220629Z 14009G14KT 19/17 A2997 RMK A01 T01900165  RH  085%=      5-min Rain = 0
KMC1 220630Z 13008KT 19/17 A2997 RMK A01 T01900165  RH  085%=      5-min Rain = 0
KMC1 220631Z 14008KT 19/17 A2997 RMK A01 T01900165  RH  085%=      5-min Rain = 0
KMC1 220632Z 15006KT 19/17 A2997 RMK A01 T01900165  RH  085%=      5-min Rain = 0
KMC1 220633Z 15008KT 19/16 A2997 RMK A01 T01890164  RH  085%=      5-min Rain = 0
KMC1 220634Z 15007KT 19/16 A2997 RMK A01 T01890164  RH  085%=      5-min Rain = 0
KMC1 220635Z 14010G15KT 19/16 A2997 RMK A01 T01890164  RH  085%=      5-min Rain = 0
KMC1 220636Z 14010KT 19/16 A2997 RMK A01 T01890163  RH  085%=      5-min Rain = 0
KMC1 220637Z 15009KT 19/16 A2997 RMK A01 T01890163  RH  085%=      5-min Rain = 0
KMC1 220638Z 16010KT 19/16 A2997 RMK A01 T01890163  RH  085%=      5-min Rain = 0
KMC1 220639Z 16009KT 19/16 A2997 RMK A01 T01880162  RH  085%=      5-min Rain = 0
KMC1 220640Z 15008G15KT 19/16 A2997 RMK A01 T01890162  RH  084%=      5-min Rain = 0
KMC1 220641Z 15010KT 19/16 A2997 RMK A01 T01880162  RH  085%=      5-min Rain = 0
KMC1 220642Z 15008KT 19/16 A2997 RMK A01 T01880162  RH  085%=      5-min Rain = 0
KMC1 220643Z 15007G12KT 19/16 A2997 RMK A01 T01880162  RH  085%=      5-min Rain = 0
KMC1 220644Z 14007KT 19/16 A2997 RMK A01 T01880162  RH  085%=      5-min Rain = 0
KMC1 220645Z 14004KT 19/16 A2997 RMK A01 T01870161  RH  085%=      5-min Rain = 0
KMC1 220646Z 14006KT 19/16 A2997 RMK A01 T01870161  RH  085%=      5-min Rain = 0
KMC1 220647Z 14007KT 19/16 A2997 RMK A01 T01870161  RH  085%=      5-min Rain = 0
KMC1 220648Z 14008KT 19/16 A2997 RMK A01 T01860161  RH  085%=      5-min Rain = 0
KMC1 220649Z 14007KT 19/16 A2997 RMK A01 T01860161  RH  085%=      5-min Rain = 0
KMC1 220650Z 14007G12KT 19/16 A2997 RMK A01 T01870162  RH  085%=      5-min Rain = 0
KMC1 220651Z 14009KT 19/16 A2997 RMK A01 T01860161  RH  085%=      5-min Rain = 0
KMC1 220652Z 15006KT 19/16 A2997 RMK A01 T01870162  RH  085%=      5-min Rain = 0
KMC1 220653Z 14007G12KT 19/16 A2997 RMK A01 T01860161  RH  085%=      5-min Rain = 0
KMC1 220654Z 13009KT 19/16 A2997 RMK A01 T01850161  RH  086%=      5-min Rain = 0
KMC1 220655Z 15006KT 19/16 A2997 RMK A01 T01850161  RH  086%=      5-min Rain = 0
KMC1 220656Z 13008KT 19/16 A2996 RMK A01 T01850161  RH  086%=      5-min Rain = 0
KMC1 220657Z 13009KT 19/16 A2996 RMK A01 T01850162  RH  086%=      5-min Rain = 0
KMC1 220658Z 13007G12KT 19/16 A2996 RMK A01 T01850161  RH  086%=      5-min Rain = 0
KMC1 220659Z 14006KT 19/16 A2996 RMK A01 T01850161  RH  086%=      5-min Rain = 0
KMC1 220700Z 15007KT 19/16 A2996 RMK A01 T01850161  RH  086%=      5-min Rain = 0
KMC1 220701Z 14005KT 19/16 A2996 RMK A01 T01850161  RH  086%=      5-min Rain = 0
KMC1 220702Z 13006KT 18/16 A2996 RMK A01 T01840161  RH  086%=      5-min Rain = 0
KMC1 220703Z 13007KT 18/16 A2996 RMK A01 T01840161  RH  087%=      5-min Rain = 0
KMC1 220704Z 13007KT 18/16 A2996 RMK A01 T01840161  RH  087%=      5-min Rain = 0
KMC1 220705Z 13009KT 18/16 A2996 RMK A01 T01830161  RH  087%=      5-min Rain = 0
KMC1 220706Z 13006G11KT 18/16 A2996 RMK A01 T01830161  RH  087%=      5-min Rain = 0
KMC1 220707Z 14008G13KT 18/16 A2996 RMK A01 T01830161  RH  087%=      5-min Rain = 0
KMC1 220708Z 15010KT 18/16 A2996 RMK A01 T01830161  RH  087%=      5-min Rain = 0
KMC1 220709Z 13007KT 18/16 A2996 RMK A01 T01830161  RH  087%=      5-min Rain = 0
KMC1 220710Z 15006KT 18/16 A2996 RMK A01 T01830161  RH  087%=      5-min Rain = 0
KMC1 220711Z 15005KT 18/16 A2996 RMK A01 T01830161  RH  087%=      5-min Rain = 0
KMC1 220712Z 15004KT 18/16 A2996 RMK A01 T01820161  RH  087%=      5-min Rain = 0
KMC1 220713Z 15007KT 18/16 A2996 RMK A01 T01820160  RH  087%=      5-min Rain = 0
KMC1 220714Z 14006KT 18/16 A2996 RMK A01 T01810161  RH  088%=      5-min Rain = 0
KMC1 220715Z 14007G12KT 18/16 A2996 RMK A01 T01820161  RH  088%=      5-min Rain = 0
KMC1 220716Z 14007KT 18/16 A2996 RMK A01 T01820161  RH  088%=      5-min Rain = 0
KMC1 220717Z 15009G14KT 18/16 A2996 RMK A01 T01810161  RH  088%=      5-min Rain = 0
KMC1 220718Z 15008KT 18/16 A2996 RMK A01 T01820161  RH  088%=      5-min Rain = 0
KMC1 220719Z 14005KT 18/16 A2996 RMK A01 T01810161  RH  088%=      5-min Rain = 0
KMC1 220720Z 14006KT 18/16 A2996 RMK A01 T01810161  RH  088%=      5-min Rain = 0
KMC1 220721Z 15005KT 18/16 A2996 RMK A01 T01810160  RH  088%=      5-min Rain = 0
KMC1 220722Z 15007KT 18/16 A2996 RMK A01 T01800160  RH  088%=      5-min Rain = 0
KMC1 220723Z 15006KT 18/16 A2996 RMK A01 T01800161  RH  089%=      5-min Rain = 0
KMC1 220724Z 15005KT 18/16 A2996 RMK A01 T01800161  RH  089%=      5-min Rain = 0
KMC1 220725Z 14007KT 18/16 A2997 RMK A01 T01800161  RH  088%=      5-min Rain = 0
KMC1 220726Z 13007KT 18/16 A2997 RMK A01 T01800161  RH  089%=      5-min Rain = 0
KMC1 220727Z 15008G13KT 18/16 A2996 RMK A01 T01800161  RH  088%=      5-min Rain = 0
KMC1 220728Z 15008KT 18/16 A2996 RMK A01 T01800160  RH  088%=      5-min Rain = 0
KMC1 220729Z 14007KT 18/16 A2996 RMK A01 T01800161  RH  088%=      5-min Rain = 0
KMC1 220730Z 14007KT 18/16 A2996 RMK A01 T01810160  RH  088%=      5-min Rain = 0
KMC1 220731Z 15007KT 18/16 A2996 RMK A01 T01800160  RH  088%=      5-min Rain = 0
KMC1 220732Z 15008KT 18/16 A2996 RMK A01 T01800160  RH  088%=      5-min Rain = 0
KMC1 220733Z 15007KT 18/16 A2996 RMK A01 T01800160  RH  088%=      5-min Rain = 0
KMC1 220734Z 15007KT 18/16 A2996 RMK A01 T01800160  RH  088%=      5-min Rain = 0
KMC1 220735Z 15008KT 18/16 A2996 RMK A01 T01800160  RH  088%=      5-min Rain = 0
KMC1 220736Z 15007KT 18/16 A2996 RMK A01 T01800159  RH  088%=      5-min Rain = 0
KMC1 220737Z 15006KT 18/16 A2996 RMK A01 T01800160  RH  088%=      5-min Rain = 0
KMC1 220738Z 15007KT 18/16 A2996 RMK A01 T01800159  RH  088%=      5-min Rain = 0
KMC1 220739Z 16007KT 18/16 A2996 RMK A01 T01790159  RH  088%=      5-min Rain = 0
KMC1 220740Z 14010KT 18/16 A2996 RMK A01 T01790159  RH  088%=      5-min Rain = 0
KMC1 220741Z 14008KT 18/16 A2996 RMK A01 T01790159  RH  088%=      5-min Rain = 0
KMC1 220742Z 14008KT 18/16 A2996 RMK A01 T01790158  RH  088%=      5-min Rain = 0
KMC1 220743Z 15005KT 18/16 A2996 RMK A01 T01790159  RH  088%=      5-min Rain = 0
KMC1 220744Z 14006KT 18/16 A2996 RMK A01 T01790159  RH  088%=      5-min Rain = 0
KMC1 220745Z 14004KT 18/16 A2996 RMK A01 T01790159  RH  088%=      5-min Rain = 0
KMC1 220746Z 15009KT 18/16 A2996 RMK A01 T01780158  RH  088%=      5-min Rain = 0
KMC1 220747Z 15008KT 18/16 A2996 RMK A01 T01780159  RH  088%=      5-min Rain = 0
KMC1 220748Z 15006KT 18/16 A2996 RMK A01 T01780158  RH  088%=      5-min Rain = 0
KMC1 220749Z 15007KT 18/16 A2996 RMK A01 T01780158  RH  088%=      5-min Rain = 0
KMC1 220750Z 14007KT 18/16 A2996 RMK A01 T01780158  RH  088%=      5-min Rain = 0
KMC1 220751Z 16008KT 18/16 A2996 RMK A01 T01770158  RH  088%=      5-min Rain = 0
KMC1 220752Z 15007KT 18/16 A2996 RMK A01 T01770158  RH  088%=      5-min Rain = 0
KMC1 220753Z 14007KT 18/16 A2996 RMK A01 T01770158  RH  088%=      5-min Rain = 0
KMC1 220754Z 14008KT 18/16 A2996 RMK A01 T01770158  RH  088%=      5-min Rain = 0
KMC1 220755Z 16008KT 18/16 A2996 RMK A01 T01770158  RH  088%=      5-min Rain = 0
KMC1 220756Z 15007KT 18/16 A2996 RMK A01 T01770157  RH  088%=      5-min Rain = 0
KMC1 220757Z 15005KT 18/16 A2996 RMK A01 T01770158  RH  088%=      5-min Rain = 0
KMC1 220758Z 16006KT 18/16 A2996 RMK A01 T01770157  RH  088%=      5-min Rain = 0
KMC1 220759Z 16007KT 18/16 A2996 RMK A01 T01760157  RH  088%=      5-min Rain = 0
KMC1 220800Z 14007G12KT 18/16 A2996 RMK A01 T01760157  RH  089%=      5-min Rain = 0
KMC1 220801Z 15005KT 18/16 A2996 RMK A01 T01760157  RH  089%=      5-min Rain = 0
KMC1 220802Z 16007KT 18/16 A2996 RMK A01 T01760157  RH  088%=      5-min Rain = 0
KMC1 220803Z 15006KT 18/16 A2996 RMK A01 T01760157  RH  089%=      5-min Rain = 0
KMC1 220804Z 16006KT 18/16 A2996 RMK A01 T01760157  RH  089%=      5-min Rain = 0
KMC1 220805Z 15005KT 18/16 A2996 RMK A01 T01750157  RH  089%=      5-min Rain = 0
KMC1 220806Z 16004KT 18/16 A2996 RMK A01 T01750157  RH  089%=      5-min Rain = 0
KMC1 220807Z 15004KT 18/16 A2996 RMK A01 T01750157  RH  089%=      5-min Rain = 0
KMC1 220808Z 16004KT 17/16 A2996 RMK A01 T01740157  RH  089%=      5-min Rain = 0
KMC1 220809Z 16004KT 17/16 A2996 RMK A01 T01740157  RH  090%=      5-min Rain = 0
KMC1 220810Z 15005KT 17/16 A2996 RMK A01 T01740157  RH  090%=      5-min Rain = 0
KMC1 220811Z 15005KT 17/16 A2996 RMK A01 T01740157  RH  090%=      5-min Rain = 0
KMC1 220812Z 16006KT 17/16 A2996 RMK A01 T01740157  RH  090%=      5-min Rain = 0
KMC1 220813Z 15004KT 17/16 A2996 RMK A01 T01740157  RH  090%=      5-min Rain = 0
KMC1 220814Z 15004KT 17/16 A2996 RMK A01 T01730157  RH  090%=      5-min Rain = 0
KMC1 220815Z 16005KT 17/16 A2996 RMK A01 T01730156  RH  090%=      5-min Rain = 0
KMC1 220816Z 16008KT 17/16 A2996 RMK A01 T01730157  RH  090%=      5-min Rain = 0
KMC1 220817Z 14004KT 17/16 A2996 RMK A01 T01730157  RH  091%=      5-min Rain = 0
KMC1 220818Z 17006G12KT 17/16 A2995 RMK A01 T01730157  RH  090%=      5-min Rain = 0
KMC1 220819Z 16009KT 17/16 A2995 RMK A01 T01730158  RH  091%=      5-min Rain = 0
KMC1 220820Z 15004KT 17/16 A2995 RMK A01 T01730157  RH  091%=      5-min Rain = 0
KMC1 220821Z 15007KT 17/16 A2995 RMK A01 T01730157  RH  091%=      5-min Rain = 0
KMC1 220822Z 15009KT 17/16 A2995 RMK A01 T01730157  RH  091%=      5-min Rain = 0
KMC1 220823Z 16007KT 17/16 A2995 RMK A01 T01730157  RH  091%=      5-min Rain = 0
KMC1 220824Z 15007KT 17/16 A2995 RMK A01 T01730157  RH  091%=      5-min Rain = 0
KMC1 220825Z 14007G12KT 17/16 A2995 RMK A01 T01730157  RH  091%=      5-min Rain = 0
KMC1 220826Z 15007G12KT 17/16 A2995 RMK A01 T01730157  RH  091%=      5-min Rain = 0
KMC1 220827Z 15005KT 17/16 A2995 RMK A01 T01730157  RH  090%=      5-min Rain = 0
KMC1 220828Z 16006KT 17/16 A2995 RMK A01 T01720156  RH  090%=      5-min Rain = 0
KMC1 220829Z 15006KT 17/16 A2995 RMK A01 T01720157  RH  091%=      5-min Rain = 0
KMC1 220830Z 15006G12KT 17/16 A2995 RMK A01 T01720157  RH  091%=      5-min Rain = 0
KMC1 220831Z 15007KT 17/16 A2996 RMK A01 T01720156  RH  091%=      5-min Rain = 0
KMC1 220832Z 15006KT 17/16 A2996 RMK A01 T01720156  RH  091%=      5-min Rain = 0
KMC1 220833Z 15009G14KT 17/16 A2996 RMK A01 T01720156  RH  090%=      5-min Rain = 0
KMC1 220834Z 15009KT 17/16 A2996 RMK A01 T01720156  RH  091%=      5-min Rain = 0
KMC1 220835Z 15007KT 17/16 A2996 RMK A01 T01720156  RH  091%=      5-min Rain = 0
KMC1 220836Z 16006KT 17/16 A2995 RMK A01 T01720156  RH  090%=      5-min Rain = 0
KMC1 220837Z 16006KT 17/16 A2995 RMK A01 T01720156  RH  090%=      5-min Rain = 0
KMC1 220838Z 15006KT 17/16 A2995 RMK A01 T01720156  RH  090%=      5-min Rain = 0
KMC1 220839Z 16006KT 17/16 A2995 RMK A01 T01720155  RH  090%=      5-min Rain = 0
KMC1 220840Z 15005KT 17/16 A2995 RMK A01 T01710155  RH  090%=      5-min Rain = 0
KMC1 220841Z 16007KT 17/16 A2995 RMK A01 T01710155  RH  090%=      5-min Rain = 0
KMC1 220842Z 14006KT 17/16 A2995 RMK A01 T01710155  RH  091%=      5-min Rain = 0
KMC1 220843Z 15008KT 17/16 A2995 RMK A01 T01700155  RH  091%=      5-min Rain = 0
KMC1 220844Z 15008G13KT 17/16 A2995 RMK A01 T01700156  RH  091%=      5-min Rain = 0
KMC1 220845Z 15010KT 17/16 A2995 RMK A01 T01710155  RH  091%=      5-min Rain = 0
KMC1 220846Z 15006KT 17/16 A2995 RMK A01 T01710155  RH  090%=      5-min Rain = 0
KMC1 220847Z 15007KT 17/16 A2995 RMK A01 T01710155  RH  090%=      5-min Rain = 0
KMC1 220848Z 15007KT 17/16 A2995 RMK A01 T01710155  RH  090%=      5-min Rain = 0
KMC1 220849Z 15009KT 17/16 A2994 RMK A01 T01710155  RH  090%=      5-min Rain = 0
KMC1 220850Z 15010KT 17/16 A2994 RMK A01 T01710155  RH  090%=      5-min Rain = 0
KMC1 220851Z 15007G12KT 17/16 A2994 RMK A01 T01710155  RH  090%=      5-min Rain = 0
KMC1 220852Z 16007KT 17/16 A2994 RMK A01 T01710155  RH  090%=      5-min Rain = 0
KMC1 220853Z 15005KT 17/16 A2994 RMK A01 T01710155  RH  090%=      5-min Rain = 0
KMC1 220854Z 15007KT 17/16 A2994 RMK A01 T01710155  RH  090%=      5-min Rain = 0
KMC1 220855Z 15006KT 17/16 A2994 RMK A01 T01700155  RH  090%=      5-min Rain = 0
KMC1 220856Z 16006KT 17/16 A2994 RMK A01 T01700155  RH  091%=      5-min Rain = 0
KMC1 220857Z 15006G11KT 17/16 A2994 RMK A01 T01700155  RH  091%=      5-min Rain = 0
KMC1 220858Z 15008KT 17/16 A2994 RMK A01 T01700155  RH  091%=      5-min Rain = 0
KMC1 220859Z 15006KT 17/16 A2995 RMK A01 T01700155  RH  091%=      5-min Rain = 0
KMC1 220900Z 16008KT 17/15 A2995 RMK A01 T01690154  RH  091%=      5-min Rain = 0
KMC1 220901Z 15007KT 17/15 A2995 RMK A01 T01690154  RH  091%=      5-min Rain = 0
KMC1 220902Z 15006KT 17/16 A2995 RMK A01 T01700155  RH  091%=      5-min Rain = 0
KMC1 220903Z 15006KT 17/15 A2995 RMK A01 T01690154  RH  091%=      5-min Rain = 0
KMC1 220904Z 14006G11KT 17/15 A2995 RMK A01 T01690154  RH  091%=      5-min Rain = 0
KMC1 220905Z 15006KT 17/16 A2995 RMK A01 T01690155  RH  091%=      5-min Rain = 0
KMC1 220906Z 15005KT 17/15 A2995 RMK A01 T01690154  RH  091%=      5-min Rain = 0
KMC1 220907Z 15007KT 17/15 A2995 RMK A01 T01680154  RH  091%=      5-min Rain = 0
KMC1 220908Z 15006KT 17/15 A2995 RMK A01 T01690154  RH  091%=      5-min Rain = 0
KMC1 220909Z 15007KT 17/15 A2995 RMK A01 T01680154  RH  091%=      5-min Rain = 0
KMC1 220910Z 15006KT 17/15 A2995 RMK A01 T01680154  RH  091%=      5-min Rain = 0
KMC1 220911Z 15005KT 17/15 A2995 RMK A01 T01680154  RH  091%=      5-min Rain = 0
KMC1 220912Z 15006KT 17/15 A2995 RMK A01 T01680154  RH  091%=      5-min Rain = 0
KMC1 220913Z 15006KT 17/15 A2995 RMK A01 T01680154  RH  091%=      5-min Rain = 0
KMC1 220914Z 15006KT 17/15 A2995 RMK A01 T01680154  RH  092%=      5-min Rain = 0
KMC1 220915Z 16006KT 17/15 A2995 RMK A01 T01680154  RH  092%=      5-min Rain = 0
KMC1 220916Z 15009KT 17/15 A2995 RMK A01 T01680154  RH  092%=      5-min Rain = 0
KMC1 220917Z 15006KT 17/15 A2995 RMK A01 T01670154  RH  092%=      5-min Rain = 0
KMC1 220918Z 15006KT 17/15 A2995 RMK A01 T01680154  RH  092%=      5-min Rain = 0
KMC1 220919Z 15004KT 17/15 A2995 RMK A01 T01680154  RH  092%=      5-min Rain = 0
KMC1 220920Z 15003KT 17/15 A2995 RMK A01 T01670154  RH  092%=      5-min Rain = 0
KMC1 220921Z 15006KT 17/15 A2995 RMK A01 T01670154  RH  092%=      5-min Rain = 0
KMC1 220922Z 15006KT 17/15 A2995 RMK A01 T01670154  RH  092%=      5-min Rain = 0
KMC1 220923Z 15005KT 17/15 A2995 RMK A01 T01670154  RH  092%=      5-min Rain = 0
KMC1 220924Z 14005KT 17/15 A2995 RMK A01 T01660153  RH  092%=      5-min Rain = 0
KMC1 220925Z 15006KT 17/15 A2995 RMK A01 T01660153  RH  092%=      5-min Rain = 0
KMC1 220926Z 16006G11KT 17/15 A2995 RMK A01 T01660153  RH  092%=      5-min Rain = 0
KMC1 220927Z 16005KT 17/15 A2995 RMK A01 T01660154  RH  093%=      5-min Rain = 0
KMC1 220928Z 15007KT 17/15 A2995 RMK A01 T01660154  RH  092%=      5-min Rain = 0
KMC1 220929Z 15008KT 17/15 A2995 RMK A01 T01660153  RH  092%=      5-min Rain = 0
KMC1 220930Z 15005KT 17/15 A2995 RMK A01 T01660153  RH  092%=      5-min Rain = 0
KMC1 220931Z 15005KT 17/15 A2995 RMK A01 T01660153  RH  092%=      5-min Rain = 0
KMC1 220932Z 15004KT 17/15 A2995 RMK A01 T01660153  RH  092%=      5-min Rain = 0
KMC1 220933Z 16005KT 17/15 A2995 RMK A01 T01660153  RH  092%=      5-min Rain = 0
KMC1 220934Z 15004KT 17/15 A2995 RMK A01 T01660154  RH  092%=      5-min Rain = 0
KMC1 220935Z 15006KT 17/15 A2995 RMK A01 T01660153  RH  092%=      5-min Rain = 0
KMC1 220936Z 14005KT 17/15 A2995 RMK A01 T01660154  RH  092%=      5-min Rain = 0
KMC1 220937Z 14004KT 17/15 A2995 RMK A01 T01660154  RH  092%=      5-min Rain = 0
KMC1 220938Z 15005KT 17/15 A2995 RMK A01 T01660153  RH  092%=      5-min Rain = 0
KMC1 220939Z 15005KT 17/15 A2995 RMK A01 T01650153  RH  093%=      5-min Rain = 0
KMC1 220940Z 15006KT 17/15 A2995 RMK A01 T01650153  RH  092%=      5-min Rain = 0
KMC1 220941Z 15005KT 17/15 A2995 RMK A01 T01650153  RH  092%=      5-min Rain = 0
KMC1 220942Z 15008KT 17/15 A2995 RMK A01 T01650153  RH  092%=      5-min Rain = 0
KMC1 220943Z 15007KT 17/15 A2995 RMK A01 T01650153  RH  092%=      5-min Rain = 0
KMC1 220944Z 15006KT 17/15 A2995 RMK A01 T01660153  RH  092%=      5-min Rain = 0
KMC1 220945Z 15005KT 17/15 A2995 RMK A01 T01660153  RH  092%=      5-min Rain = 0
KMC1 220946Z 15003KT 17/15 A2995 RMK A01 T01660153  RH  092%=      5-min Rain = 0
KMC1 220947Z 16005KT 17/15 A2995 RMK A01 T01660153  RH  092%=      5-min Rain = 0
KMC1 220948Z 14005KT 17/15 A2995 RMK A01 T01660153  RH  092%=      5-min Rain = 0
KMC1 220949Z 14008KT 17/15 A2995 RMK A01 T01650153  RH  092%=      5-min Rain = 0
KMC1 220950Z 15006KT 17/15 A2995 RMK A01 T01650152  RH  092%=      5-min Rain = 0
KMC1 220951Z 17007KT 17/15 A2995 RMK A01 T01650153  RH  092%=      5-min Rain = 0
KMC1 220952Z 14007KT 17/15 A2995 RMK A01 T01650152  RH  092%=      5-min Rain = 0
KMC1 220953Z 15005KT 17/15 A2995 RMK A01 T01650152  RH  092%=      5-min Rain = 0
KMC1 220954Z 15004KT 17/15 A2995 RMK A01 T01650152  RH  092%=      5-min Rain = 0
KMC1 220955Z 15007KT 17/15 A2995 RMK A01 T01660152  RH  092%=      5-min Rain = 0
KMC1 220956Z 15007KT 17/15 A2995 RMK A01 T01660152  RH  092%=      5-min Rain = 0
KMC1 220957Z 14009KT 17/15 A2995 RMK A01 T01660152  RH  092%=      5-min Rain = 0
KMC1 220958Z 15008KT 17/15 A2995 RMK A01 T01660152  RH  091%=      5-min Rain = 0
KMC1 220959Z 15005KT 17/15 A2995 RMK A01 T01670152  RH  091%=      5-min Rain = 0
KMC1 221000Z 14007KT 17/15 A2995 RMK A01 T01670152  RH  091%=      5-min Rain = 0
KMC1 221001Z 15007KT 17/15 A2995 RMK A01 T01670152  RH  091%=      5-min Rain = 0
KMC1 221002Z 14006KT 17/15 A2995 RMK A01 T01670152  RH  091%=      5-min Rain = 0
KMC1 221003Z 15005KT 17/15 A2995 RMK A01 T01670152  RH  091%=      5-min Rain = 0
KMC1 221004Z 15006KT 17/15 A2995 RMK A01 T01670152  RH  091%=      5-min Rain = 0
KMC1 221005Z 15007KT 17/15 A2995 RMK A01 T01670152  RH  091%=      5-min Rain = 0
KMC1 221006Z 15006KT 17/15 A2995 RMK A01 T01670152  RH  091%=      5-min Rain = 0
KMC1 221007Z 14008G13KT 17/15 A2995 RMK A01 T01670152  RH  091%=      5-min Rain = 0
KMC1 221008Z 15006KT 17/15 A2995 RMK A01 T01670152  RH  091%=      5-min Rain = 0
KMC1 221009Z 14007KT 17/15 A2995 RMK A01 T01670151  RH  091%=      5-min Rain = 0
KMC1 221010Z 15006KT 17/15 A2995 RMK A01 T01670152  RH  091%=      5-min Rain = 0
KMC1 221011Z 15004KT 17/15 A2995 RMK A01 T01670152  RH  090%=      5-min Rain = 0
KMC1 221012Z 15004KT 17/15 A2995 RMK A01 T01670152  RH  090%=      5-min Rain = 0
KMC1 221013Z 15004KT 17/15 A2995 RMK A01 T01670151  RH  090%=      5-min Rain = 0
KMC1 221014Z 15006KT 17/15 A2995 RMK A01 T01670152  RH  091%=      5-min Rain = 0
KMC1 221015Z 14007G13KT 17/15 A2995 RMK A01 T01670152  RH  091%=      5-min Rain = 0
KMC1 221016Z 16008KT 17/15 A2995 RMK A01 T01670152  RH  091%=      5-min Rain = 0
KMC1 221017Z 15007KT 17/15 A2995 RMK A01 T01670152  RH  091%=      5-min Rain = 0
KMC1 221018Z 14005KT 17/15 A2995 RMK A01 T01670151  RH  091%=      5-min Rain = 0
KMC1 221019Z 14004KT 17/15 A2995 RMK A01 T01670151  RH  090%=      5-min Rain = 0
KMC1 221020Z 15005KT 17/15 A2995 RMK A01 T01670152  RH  090%=      5-min Rain = 0
KMC1 221021Z 16004KT 17/15 A2995 RMK A01 T01670152  RH  091%=      5-min Rain = 0
KMC1 221022Z 15004KT 17/15 A2995 RMK A01 T01670152  RH  091%=      5-min Rain = 0
KMC1 221023Z 14003KT 17/15 A2995 RMK A01 T01670151  RH  091%=      5-min Rain = 0
KMC1 221024Z 15005KT 17/15 A2995 RMK A01 T01670152  RH  091%=      5-min Rain = 0
KMC1 221025Z 15005KT 17/15 A2995 RMK A01 T01670152  RH  091%=      5-min Rain = 0
KMC1 221026Z 15005KT 17/15 A2995 RMK A01 T01670152  RH  091%=      5-min Rain = 0
KMC1 221027Z 14005KT 17/15 A2995 RMK A01 T01670152  RH  091%=      5-min Rain = 0
KMC1 221028Z 15006KT 17/15 A2995 RMK A01 T01670152  RH  091%=      5-min Rain = 0
KMC1 221029Z 15006KT 17/15 A2995 RMK A01 T01670151  RH  091%=      5-min Rain = 0
KMC1 221030Z 14003KT 17/15 A2995 RMK A01 T01670151  RH  090%=      5-min Rain = 0
KMC1 221031Z 14005KT 17/15 A2995 RMK A01 T01670151  RH  090%=      5-min Rain = 0
KMC1 221032Z 15006KT 17/15 A2995 RMK A01 T01670152  RH  090%=      5-min Rain = 0
KMC1 221033Z 15004KT 17/15 A2995 RMK A01 T01670152  RH  090%=      5-min Rain = 0
KMC1 221034Z 16006KT 17/15 A2995 RMK A01 T01670151  RH  091%=      5-min Rain = 0
KMC1 221035Z 15007KT 17/15 A2995 RMK A01 T01670152  RH  091%=      5-min Rain = 0
KMC1 221036Z 15004KT 17/15 A2995 RMK A01 T01670151  RH  091%=      5-min Rain = 0
KMC1 221037Z 13005KT 17/15 A2995 RMK A01 T01670151  RH  091%=      5-min Rain = 0
KMC1 221038Z 14006KT 17/15 A2995 RMK A01 T01660151  RH  091%=      5-min Rain = 0
KMC1 221039Z 15008KT 17/15 A2995 RMK A01 T01660151  RH  091%=      5-min Rain = 0
KMC1 221040Z 14006KT 17/15 A2995 RMK A01 T01660151  RH  091%=      5-min Rain = 0
KMC1 221041Z 15004KT 17/15 A2995 RMK A01 T01660151  RH  091%=      5-min Rain = 0
KMC1 221042Z 16005KT 17/15 A2995 RMK A01 T01660151  RH  091%=      5-min Rain = 0
KMC1 221043Z 14004KT 17/15 A2995 RMK A01 T01660151  RH  091%=      5-min Rain = 0
KMC1 221044Z 15007KT 17/15 A2995 RMK A01 T01660151  RH  091%=      5-min Rain = 0
KMC1 221045Z 14006KT 17/15 A2995 RMK A01 T01660151  RH  091%=      5-min Rain = 0
KMC1 221046Z 14006KT 17/15 A2995 RMK A01 T01660151  RH  091%=      5-min Rain = 0
KMC1 221047Z 15006KT 17/15 A2995 RMK A01 T01660151  RH  091%=      5-min Rain = 0
KMC1 221048Z 14007KT 17/15 A2995 RMK A01 T01660151  RH  091%=      5-min Rain = 0
KMC1 221049Z 15007KT 17/15 A2995 RMK A01 T01660151  RH  091%=      5-min Rain = 0
KMC1 221050Z 14005KT 17/15 A2995 RMK A01 T01660151  RH  091%=      5-min Rain = 0
KMC1 221051Z 16005KT 17/15 A2995 RMK A01 T01660151  RH  091%=      5-min Rain = 0
KMC1 221052Z 15004KT 17/15 A2995 RMK A01 T01660151  RH  091%=      5-min Rain = 0
KMC1 221053Z 16004KT 17/15 A2996 RMK A01 T01660151  RH  091%=      5-min Rain = 0
KMC1 221054Z 15007KT 17/15 A2995 RMK A01 T01660151  RH  091%=      5-min Rain = 0
KMC1 221055Z 16004KT 17/15 A2996 RMK A01 T01660151  RH  091%=      5-min Rain = 0
KMC1 221056Z 16005KT 17/15 A2996 RMK A01 T01660151  RH  091%=      5-min Rain = 0
KMC1 221057Z 16005KT 17/15 A2996 RMK A01 T01660151  RH  091%=      5-min Rain = 0
KMC1 221058Z 14006KT 17/15 A2996 RMK A01 T01660151  RH  091%=      5-min Rain = 0
KMC1 221059Z 16006KT 17/15 A2996 RMK A01 T01660151  RH  091%=      5-min Rain = 0
KMC1 221100Z 16005KT 17/15 A2996 RMK A01 T01660151  RH  091%=      5-min Rain = 0
KMC1 221101Z 15004KT 17/15 A2996 RMK A01 T01660151  RH  091%=      5-min Rain = 0
KMC1 221102Z 15003KT 17/15 A2996 RMK A01 T01660151  RH  091%=      5-min Rain = 0
KMC1 221103Z 14003KT 17/15 A2996 RMK A01 T01660151  RH  091%=      5-min Rain = 0
KMC1 221104Z 16003KT 17/15 A2996 RMK A01 T01650150  RH  091%=      5-min Rain = 0
KMC1 221105Z 16004KT 17/15 A2996 RMK A01 T01650151  RH  091%=      5-min Rain = 0
KMC1 221106Z 15004KT 17/15 A2996 RMK A01 T01650151  RH  091%=      5-min Rain = 0
KMC1 221107Z 15005KT 17/15 A2996 RMK A01 T01650151  RH  091%=      5-min Rain = 0
KMC1 221108Z 16004KT 17/15 A2996 RMK A01 T01650151  RH  092%=      5-min Rain = 0
KMC1 221109Z 15002KT 17/15 A2996 RMK A01 T01650151  RH  091%=      5-min Rain = 0
KMC1 221110Z 16005KT 17/15 A2996 RMK A01 T01650151  RH  091%=      5-min Rain = 0
KMC1 221111Z 15004KT 16/15 A2996 RMK A01 T01640151  RH  092%=      5-min Rain = 0
KMC1 221112Z 15005KT 17/15 A2996 RMK A01 T01650151  RH  092%=      5-min Rain = 0
KMC1 221113Z 16005KT 16/15 A2996 RMK A01 T01640151  RH  091%=      5-min Rain = 0
KMC1 221114Z 15005KT 16/15 A2996 RMK A01 T01640151  RH  091%=      5-min Rain = 0
KMC1 221115Z 15004KT 17/15 A2996 RMK A01 T01650151  RH  091%=      5-min Rain = 0
KMC1 221116Z 16005KT 16/15 A2996 RMK A01 T01640150  RH  091%=      5-min Rain = 0
KMC1 221117Z 16005KT 16/15 A2996 RMK A01 T01640151  RH  092%=      5-min Rain = 0
KMC1 221118Z 15005KT 16/15 A2996 RMK A01 T01640151  RH  092%=      5-min Rain = 0
KMC1 221119Z 15004KT 17/15 A2996 RMK A01 T01650151  RH  092%=      5-min Rain = 0
KMC1 221120Z 15006KT 16/15 A2996 RMK A01 T01640151  RH  092%=      5-min Rain = 0
KMC1 221121Z 15005KT 16/15 A2996 RMK A01 T01640151  RH  092%=      5-min Rain = 0
KMC1 221122Z 15004KT 16/15 A2996 RMK A01 T01640151  RH  092%=      5-min Rain = 0
KMC1 221123Z 14005KT 16/15 A2996 RMK A01 T01640151  RH  092%=      5-min Rain = 0
KMC1 221124Z 15004KT 16/15 A2996 RMK A01 T01640151  RH  092%=      5-min Rain = 0
KMC1 221125Z 15004KT 16/15 A2996 RMK A01 T01640151  RH  092%=      5-min Rain = 0
KMC1 221126Z 16003KT 16/15 A2996 RMK A01 T01640151  RH  092%=      5-min Rain = 0
KMC1 221127Z 15004KT 16/15 A2996 RMK A01 T01640150  RH  092%=      5-min Rain = 0
KMC1 221128Z 15004KT 16/15 A2996 RMK A01 T01640151  RH  092%=      5-min Rain = 0
KMC1 221129Z 14005KT 16/15 A2996 RMK A01 T01640151  RH  092%=      5-min Rain = 0
KMC1 221130Z 16005KT 16/15 A2996 RMK A01 T01630151  RH  092%=      5-min Rain = 0
KMC1 221131Z 16006KT 16/15 A2996 RMK A01 T01630151  RH  092%=      5-min Rain = 0
KMC1 221132Z 16003KT 16/15 A2997 RMK A01 T01630151  RH  092%=      5-min Rain = 0
KMC1 221133Z 15002KT 16/15 A2997 RMK A01 T01630150  RH  092%=      5-min Rain = 0
KMC1 221134Z 15004KT 16/15 A2997 RMK A01 T01630151  RH  092%=      5-min Rain = 0
KMC1 221135Z 15003KT 16/15 A2997 RMK A01 T01630151  RH  092%=      5-min Rain = 0
KMC1 221136Z 15006KT 16/15 A2997 RMK A01 T01630151  RH  092%=      5-min Rain = 0
KMC1 221137Z 15003KT 16/15 A2996 RMK A01 T01640151  RH  092%=      5-min Rain = 0
KMC1 221138Z 14004KT 16/15 A2996 RMK A01 T01640150  RH  092%=      5-min Rain = 0
KMC1 221139Z 14006KT 16/15 A2996 RMK A01 T01630150  RH  092%=      5-min Rain = 0
KMC1 221140Z 15005KT 16/15 A2996 RMK A01 T01630150  RH  092%=      5-min Rain = 0
KMC1 221141Z 14007KT 16/15 A2996 RMK A01 T01630150  RH  092%=      5-min Rain = 0
KMC1 221142Z 15005KT 16/15 A2997 RMK A01 T01630150  RH  092%=      5-min Rain = 0
KMC1 221143Z 15004KT 16/15 A2997 RMK A01 T01640150  RH  092%=      5-min Rain = 0
KMC1 221144Z 15004KT 16/15 A2997 RMK A01 T01640150  RH  092%=      5-min Rain = 0
KMC1 221145Z 15005KT 16/15 A2997 RMK A01 T01640150  RH  092%=      5-min Rain = 0
KMC1 221146Z 15006KT 16/15 A2997 RMK A01 T01640151  RH  092%=      5-min Rain = 0
KMC1 221147Z 15004KT 16/15 A2997 RMK A01 T01640151  RH  092%=      5-min Rain = 0
KMC1 221148Z 16005KT 16/15 A2997 RMK A01 T01640150  RH  092%=      5-min Rain = 0
KMC1 221149Z 15005KT 16/15 A2997 RMK A01 T01630150  RH  092%=      5-min Rain = 0
KMC1 221150Z 15004KT 16/15 A2997 RMK A01 T01630150  RH  092%=      5-min Rain = 0
KMC1 221151Z 15005KT 16/15 A2997 RMK A01 T01630150  RH  092%=      5-min Rain = 0
KMC1 221152Z 16006KT 16/15 A2997 RMK A01 T01630150  RH  092%=      5-min Rain = 0
KMC1 221153Z 15006KT 16/15 A2997 RMK A01 T01630150  RH  092%=      5-min Rain = 0
KMC1 221154Z 14006KT 16/15 A2997 RMK A01 T01640151  RH  092%=      5-min Rain = 0
KMC1 221155Z 16006KT 16/15 A2997 RMK A01 T01630150  RH  092%=      5-min Rain = 0
KMC1 221156Z 16005KT 16/15 A2997 RMK A01 T01640150  RH  092%=      5-min Rain = 0
KMC1 221157Z 16005KT 16/15 A2997 RMK A01 T01640150  RH  092%=      5-min Rain = 0
KMC1 221158Z 15005KT 16/15 A2997 RMK A01 T01640150  RH  092%=      5-min Rain = 0
KMC1 221159Z 15004KT 16/15 A2997 RMK A01 T01630150  RH  092%=      5-min Rain = 0
KMC1 221200Z 15007KT 16/15 A2997 RMK A01 T01630150  RH  092%=      5-min Rain = 0
KMC1 221201Z 16006KT 16/15 A2997 RMK A01 T01640150  RH  092%=      5-min Rain = 0
KMC1 221202Z 15006KT 16/15 A2997 RMK A01 T01640151  RH  092%=      5-min Rain = 0
KMC1 221203Z 15006KT 16/15 A2997 RMK A01 T01640150  RH  092%=      5-min Rain = 0
KMC1 221204Z 16008KT 16/15 A2997 RMK A01 T01640150  RH  092%=      5-min Rain = 0
KMC1 221205Z 16008KT 17/15 A2997 RMK A01 T01650150  RH  091%=      5-min Rain = 0
KMC1 221206Z 16007KT 17/15 A2997 RMK A01 T01650150  RH  091%=      5-min Rain = 0
KMC1 221207Z 16007KT 17/15 A2997 RMK A01 T01660150  RH  090%=      5-min Rain = 0
KMC1 221208Z 16006KT 17/15 A2997 RMK A01 T01660150  RH  090%=      5-min Rain = 0
KMC1 221209Z 16006KT 17/15 A2997 RMK A01 T01660150  RH  090%=      5-min Rain = 0
KMC1 221210Z 17008G13KT 17/15 A2997 RMK A01 T01660150  RH  090%=      5-min Rain = 0
KMC1 221211Z 16006KT 17/15 A2997 RMK A01 T01660150  RH  090%=      5-min Rain = 0
KMC1 221212Z 15005KT 17/15 A2997 RMK A01 T01660149  RH  090%=      5-min Rain = 0
KMC1 221213Z 16006KT 17/15 A2998 RMK A01 T01670150  RH  089%=      5-min Rain = 0
KMC1 221214Z 15008G13KT 17/15 A2998 RMK A01 T01670149  RH  089%=      5-min Rain = 0
KMC1 221215Z 16008KT 17/15 A2998 RMK A01 T01670149  RH  089%=      5-min Rain = 0
KMC1 221216Z 15006KT 17/15 A2998 RMK A01 T01680149  RH  089%=      5-min Rain = 0
KMC1 221217Z 16005G10KT 17/15 A2998 RMK A01 T01680149  RH  089%=      5-min Rain = 0
KMC1 221218Z 17007KT 17/15 A2998 RMK A01 T01670149  RH  089%=      5-min Rain = 0
KMC1 221219Z 16005KT 17/15 A2998 RMK A01 T01680149  RH  089%=      5-min Rain = 0
KMC1 221220Z 16007KT 17/15 A2998 RMK A01 T01680149  RH  089%=      5-min Rain = 0
KMC1 221221Z 16005KT 17/15 A2998 RMK A01 T01680149  RH  089%=      5-min Rain = 0
KMC1 221222Z 15006KT 17/15 A2998 RMK A01 T01680149  RH  089%=      5-min Rain = 0
KMC1 221223Z 17007KT 17/15 A2998 RMK A01 T01680149  RH  088%=      5-min Rain = 0
KMC1 221224Z 17007KT 17/15 A2998 RMK A01 T01690149  RH  088%=      5-min Rain = 0
KMC1 221225Z 15005KT 17/15 A2998 RMK A01 T01680149  RH  088%=      5-min Rain = 0
KMC1 221226Z 15009KT 17/15 A2998 RMK A01 T01690149  RH  088%=      5-min Rain = 0
KMC1 221227Z 15005KT 17/15 A2998 RMK A01 T01690149  RH  088%=      5-min Rain = 0
KMC1 221228Z 14006KT 17/15 A2998 RMK A01 T01690149  RH  088%=      5-min Rain = 0
KMC1 221229Z 15005KT 17/15 A2998 RMK A01 T01690149  RH  088%=      5-min Rain = 0
KMC1 221230Z 15005KT 17/15 A2998 RMK A01 T01690149  RH  088%=      5-min Rain = 0
KMC1 221231Z 15005KT 17/15 A2998 RMK A01 T01690149  RH  088%=      5-min Rain = 0
KMC1 221232Z 16007KT 17/15 A2998 RMK A01 T01690149  RH  088%=      5-min Rain = 0
KMC1 221233Z 16007KT 17/15 A2998 RMK A01 T01690149  RH  088%=      5-min Rain = 0
KMC1 221234Z 16007KT 17/15 A2998 RMK A01 T01700149  RH  088%=      5-min Rain = 0
KMC1 221235Z 15008KT 17/15 A2998 RMK A01 T01700149  RH  087%=      5-min Rain = 0
KMC1 221236Z 17005KT 17/15 A2998 RMK A01 T01700149  RH  087%=      5-min Rain = 0
KMC1 221237Z 17005KT 17/15 A2998 RMK A01 T01700149  RH  087%=      5-min Rain = 0
KMC1 221238Z 17008KT 17/15 A2998 RMK A01 T01700149  RH  087%=      5-min Rain = 0
KMC1 221239Z 17007KT 17/15 A2998 RMK A01 T01700149  RH  087%=      5-min Rain = 0
KMC1 221240Z 16006KT 17/15 A2998 RMK A01 T01710149  RH  087%=      5-min Rain = 0
KMC1 221241Z 17007G13KT 17/15 A2998 RMK A01 T01700149  RH  087%=      5-min Rain = 0
KMC1 221242Z 16007KT 17/15 A2998 RMK A01 T01710149  RH  087%=      5-min Rain = 0
KMC1 221243Z 16011KT 17/15 A2999 RMK A01 T01710149  RH  087%=      5-min Rain = 0
KMC1 221244Z 16009KT 17/15 A2999 RMK A01 T01710148  RH  086%=      5-min Rain = 0
KMC1 221245Z 16006G11KT 17/15 A2999 RMK A01 T01710149  RH  087%=      5-min Rain = 0
KMC1 221246Z 16005KT 17/15 A2999 RMK A01 T01710149  RH  086%=      5-min Rain = 0
KMC1 221247Z 16004KT 17/15 A2999 RMK A01 T01720149  RH  086%=      5-min Rain = 0
KMC1 221248Z 16005KT 17/15 A2999 RMK A01 T01720149  RH  086%=      5-min Rain = 0
KMC1 221249Z 15004KT 17/15 A2999 RMK A01 T01720149  RH  086%=      5-min Rain = 0
KMC1 221250Z 17005KT 17/15 A2999 RMK A01 T01720149  RH  086%=      5-min Rain = 0
KMC1 221251Z 16006KT 17/15 A2999 RMK A01 T01720149  RH  086%=      5-min Rain = 0
KMC1 221252Z 16006KT 17/15 A2999 RMK A01 T01720149  RH  086%=      5-min Rain = 0
KMC1 221253Z 18005KT 17/15 A2999 RMK A01 T01720149  RH  086%=      5-min Rain = 0
KMC1 221254Z 16006KT 17/15 A2999 RMK A01 T01730150  RH  086%=      5-min Rain = 0
KMC1 221255Z 15007KT 17/15 A2999 RMK A01 T01730149  RH  086%=      5-min Rain = 0
KMC1 221256Z 17010G15KT 17/15 A2999 RMK A01 T01730149  RH  086%=      5-min Rain = 0
KMC1 221257Z 17006KT 17/15 A2999 RMK A01 T01730149  RH  086%=      5-min Rain = 0
KMC1 221258Z 15005G10KT 17/15 A2999 RMK A01 T01730149  RH  086%=      5-min Rain = 0
KMC1 221259Z 16008KT 17/15 A2999 RMK A01 T01730149  RH  086%=      5-min Rain = 0
KMC1 221300Z 17006KT 17/15 A2999 RMK A01 T01740149  RH  085%=      5-min Rain = 0
KMC1 221301Z 16006KT 17/15 A2999 RMK A01 T01740149  RH  085%=      5-min Rain = 0
KMC1 221302Z 15005KT 17/15 A2999 RMK A01 T01740149  RH  085%=      5-min Rain = 0
KMC1 221303Z 15005G13KT 17/15 A2999 RMK A01 T01740150  RH  086%=      5-min Rain = 0
KMC1 221304Z 16010KT 17/15 A30 RMK A01 T01740149  RH  085%=      5-min Rain = 0
KMC1 221305Z 17009KT 18/15 A30 RMK A01 T01750149  RH  085%=      5-min Rain = 0
KMC1 221306Z 17006KT 18/15 A30 RMK A01 T01750149  RH  085%=      5-min Rain = 0
KMC1 221307Z 17007G12KT 18/15 A2999 RMK A01 T01750149  RH  085%=      5-min Rain = 0
KMC1 221308Z 15007KT 18/15 A2999 RMK A01 T01750149  RH  085%=      5-min Rain = 0
KMC1 221309Z 16006KT 18/15 A2999 RMK A01 T01750149  RH  085%=      5-min Rain = 0
KMC1 221310Z 17006KT 18/15 A30 RMK A01 T01750149  RH  085%=      5-min Rain = 0
KMC1 221311Z 16005KT 18/15 A30 RMK A01 T01750150  RH  085%=      5-min Rain = 0
KMC1 221312Z 16009KT 18/15 A30 RMK A01 T01750149  RH  085%=      5-min Rain = 0
KMC1 221313Z 16008G14KT 18/15 A30 RMK A01 T01760149  RH  084%=      5-min Rain = 0
KMC1 221314Z 17008KT 18/15 A30 RMK A01 T01760149  RH  084%=      5-min Rain = 0
KMC1 221315Z 16007KT 18/15 A30 RMK A01 T01760149  RH  084%=      5-min Rain = 0
KMC1 221316Z 17006KT 18/15 A30 RMK A01 T01760149  RH  084%=      5-min Rain = 0
KMC1 221317Z 15007KT 18/15 A2999 RMK A01 T01760149  RH  084%=      5-min Rain = 0
KMC1 221318Z 16008G13KT 18/15 A2999 RMK A01 T01760150  RH  084%=      5-min Rain = 0
KMC1 221319Z 17011KT 18/15 A2999 RMK A01 T01760149  RH  084%=      5-min Rain = 0
KMC1 221320Z 15009KT 18/15 A2999 RMK A01 T01770149  RH  084%=      5-min Rain = 0
KMC1 221321Z 16009KT 18/15 A2999 RMK A01 T01760148  RH  084%=      5-min Rain = 0
KMC1 221322Z 16007KT 18/15 A2999 RMK A01 T01760149  RH  084%=      5-min Rain = 0
KMC1 221323Z 17007KT 18/15 A2999 RMK A01 T01760149  RH  084%=      5-min Rain = 0
KMC1 221324Z 16008G13KT 18/15 A2999 RMK A01 T01770149  RH  084%=      5-min Rain = 0
KMC1 221325Z 17009G15KT 18/15 A30 RMK A01 T01770149  RH  084%=      5-min Rain = 0
KMC1 221326Z 17013KT 18/15 A30 RMK A01 T01770149  RH  083%=      5-min Rain = 0
KMC1 221327Z 17010KT 18/15 A30 RMK A01 T01770148  RH  083%=      5-min Rain = 0
KMC1 221328Z 16009KT 18/15 A30 RMK A01 T01770148  RH  083%=      5-min Rain = 0
KMC1 221329Z 16009KT 18/15 A30 RMK A01 T01770148  RH  083%=      5-min Rain = 0
KMC1 221330Z 16009KT 18/15 A30 RMK A01 T01770148  RH  083%=      5-min Rain = 0
KMC1 221331Z 16008G14KT 18/15 A30 RMK A01 T01770148  RH  083%=      5-min Rain = 0
KMC1 221332Z 16010KT 18/15 A30 RMK A01 T01780148  RH  083%=      5-min Rain = 0
KMC1 221333Z 16008KT 18/15 A30 RMK A01 T01780148  RH  083%=      5-min Rain = 0
KMC1 221334Z 16007KT 18/15 A30 RMK A01 T01780148  RH  083%=      5-min Rain = 0
KMC1 221335Z 17006KT 18/15 A30 RMK A01 T01780149  RH  083%=      5-min Rain = 0
KMC1 221336Z 16007KT 18/15 A30 RMK A01 T01790149  RH  083%=      5-min Rain = 0
KMC1 221337Z 17006KT 18/15 A30 RMK A01 T01790149  RH  083%=      5-min Rain = 0
KMC1 221338Z 16007G13KT 18/15 A30 RMK A01 T01790149  RH  083%=      5-min Rain = 0
KMC1 221339Z 16010KT 18/15 A30 RMK A01 T01790148  RH  082%=      5-min Rain = 0
KMC1 221340Z 16010KT 18/15 A30 RMK A01 T01790148  RH  082%=      5-min Rain = 0
KMC1 221341Z 16008KT 18/15 A30 RMK A01 T01800148  RH  082%=      5-min Rain = 0
KMC1 221342Z 15009KT 18/15 A30 RMK A01 T01800148  RH  082%=      5-min Rain = 0
KMC1 221343Z 16010KT 18/15 A30 RMK A01 T01800148  RH  081%=      5-min Rain = 0
KMC1 221344Z 16008KT 18/15 A30 RMK A01 T01810149  RH  081%=      5-min Rain = 0
KMC1 221345Z 16008KT 18/15 A30 RMK A01 T01820149  RH  081%=      5-min Rain = 0
KMC1 221346Z 15009KT 18/15 A30 RMK A01 T01820149  RH  081%=      5-min Rain = 0
KMC1 221347Z 15008KT 18/15 A30 RMK A01 T01830148  RH  080%=      5-min Rain = 0
KMC1 221348Z 16009G15KT 18/15 A30 RMK A01 T01840148  RH  080%=      5-min Rain = 0
KMC1 221349Z 16011KT 18/15 A30 RMK A01 T01840148  RH  079%=      5-min Rain = 0
KMC1 221350Z 18010G17KT 18/15 A30 RMK A01 T01840148  RH  080%=      5-min Rain = 0
KMC1 221351Z 17012G17KT 18/15 A30 RMK A01 T01840148  RH  079%=      5-min Rain = 0
KMC1 221352Z 17010KT 18/15 A30 RMK A01 T01840148  RH  079%=      5-min Rain = 0
KMC1 221353Z 17008KT 18/15 A30 RMK A01 T01840149  RH  080%=      5-min Rain = 0
KMC1 221354Z 17010KT 19/15 A30 RMK A01 T01850149  RH  080%=      5-min Rain = 0
KMC1 221355Z 18008KT 19/15 A30 RMK A01 T01850149  RH  079%=      5-min Rain = 0
KMC1 221356Z 17009KT 19/15 A30 RMK A01 T01850149  RH  079%=      5-min Rain = 0
KMC1 221357Z 17009KT 19/15 A30 RMK A01 T01850148  RH  079%=      5-min Rain = 0
KMC1 221358Z 17010KT 19/15 A30 RMK A01 T01850148  RH  079%=      5-min Rain = 0
KMC1 221359Z 17010KT 19/15 A30 RMK A01 T01850148  RH  079%=      5-min Rain = 0
KMC1 221400Z 17010KT 19/15 A30 RMK A01 T01860149  RH  079%=      5-min Rain = 0
KMC1 221401Z 17007G12KT 19/15 A30 RMK A01 T01860149  RH  079%=      5-min Rain = 0
KMC1 221402Z 18010KT 19/15 A30 RMK A01 T01860149  RH  079%=      5-min Rain = 0
KMC1 221403Z 18010KT 19/15 A30 RMK A01 T01870148  RH  078%=      5-min Rain = 0
KMC1 221404Z 18012G17KT 19/15 A30 RMK A01 T01860148  RH  079%=      5-min Rain = 0
KMC1 221405Z 17009G14KT 19/15 A30 RMK A01 T01860149  RH  079%=      5-min Rain = 0
KMC1 221406Z 18009KT 19/15 A30 RMK A01 T01870149  RH  079%=      5-min Rain = 0
KMC1 221407Z 16012G17KT 19/15 A30 RMK A01 T01870148  RH  078%=      5-min Rain = 0
KMC1 221408Z 18011KT 19/15 A30 RMK A01 T01870148  RH  078%=      5-min Rain = 0
KMC1 221409Z 18010KT 19/15 A30 RMK A01 T01870149  RH  078%=      5-min Rain = 0
KMC1 221410Z 17011G16KT 19/15 A30 RMK A01 T01880148  RH  078%=      5-min Rain = 0
KMC1 221411Z 17011KT 19/15 A30 RMK A01 T01880147  RH  077%=      5-min Rain = 0
KMC1 221412Z 17010G15KT 19/15 A30 RMK A01 T01880147  RH  077%=      5-min Rain = 0
KMC1 221413Z 16010G18KT 19/15 A30 RMK A01 T01880148  RH  077%=      5-min Rain = 0
KMC1 221414Z 17009KT 19/15 A30 RMK A01 T01880148  RH  077%=      5-min Rain = 0
KMC1 221415Z 16009G15KT 19/15 A30 RMK A01 T01880148  RH  078%=      5-min Rain = 0
KMC1 221416Z 17011G17KT 19/15 A30 RMK A01 T01890148  RH  077%=      5-min Rain = 0
KMC1 221417Z 17009KT 19/15 A30 RMK A01 T01890148  RH  077%=      5-min Rain = 0
KMC1 221418Z 17010KT 19/15 A30 RMK A01 T01890148  RH  077%=      5-min Rain = 0
KMC1 221419Z 17010G16KT 19/15 A30 RMK A01 T01880147  RH  077%=      5-min Rain = 0
KMC1 221420Z 17007KT 19/15 A30 RMK A01 T01890148  RH  077%=      5-min Rain = 0
KMC1 221421Z 17008KT 19/15 A30 RMK A01 T01880148  RH  077%=      5-min Rain = 0
KMC1 221422Z 17010KT 19/15 A30 RMK A01 T01890148  RH  077%=      5-min Rain = 0
KMC1 221423Z 16007KT 19/15 A30 RMK A01 T01890148  RH  077%=      5-min Rain = 0
KMC1 221424Z 15009KT 19/15 A30 RMK A01 T01890149  RH  077%=      5-min Rain = 0
KMC1 221425Z 16007KT 19/15 A30 RMK A01 T01900149  RH  077%=      5-min Rain = 0
KMC1 221426Z 17010KT 19/15 A30 RMK A01 T01910149  RH  077%=      5-min Rain = 0
KMC1 221427Z 18007G13KT 19/15 A30 RMK A01 T01920150  RH  077%=      5-min Rain = 0
KMC1 221428Z 18009KT 19/15 A30 RMK A01 T01930149  RH  076%=      5-min Rain = 0
KMC1 221429Z 16009KT 19/15 A30 RMK A01 T01930149  RH  076%=      5-min Rain = 0
KMC1 221430Z 16007G12KT 19/15 A30 RMK A01 T01930149  RH  076%=      5-min Rain = 0
KMC1 221431Z 17006G11KT 19/15 A30 RMK A01 T01930149  RH  076%=      5-min Rain = 0
KMC1 221432Z 17009G14KT 19/15 A30 RMK A01 T01940149  RH  076%=      5-min Rain = 0
KMC1 221433Z 16008KT 19/15 A30 RMK A01 T01940149  RH  075%=      5-min Rain = 0
KMC1 221434Z 18009KT 19/15 A30 RMK A01 T01940149  RH  075%=      5-min Rain = 0
KMC1 221435Z 17008KT 19/15 A30 RMK A01 T01940149  RH  075%=      5-min Rain = 0
KMC1 221436Z 17011KT 19/15 A3001 RMK A01 T01930149  RH  076%=      5-min Rain = 0
KMC1 221437Z 18008KT 19/15 A3001 RMK A01 T01930149  RH  075%=      5-min Rain = 0
KMC1 221438Z 17008KT 19/15 A3001 RMK A01 T01930149  RH  076%=      5-min Rain = 0
KMC1 221439Z 18010KT 19/15 A3001 RMK A01 T01940149  RH  075%=      5-min Rain = 0
KMC1 221440Z 17009G14KT 19/15 A3001 RMK A01 T01940149  RH  075%=      5-min Rain = 0
KMC1 221441Z 17010KT 19/15 A3001 RMK A01 T01940149  RH  075%=      5-min Rain = 0
KMC1 221442Z 17008KT 20/15 A3001 RMK A01 T01950149  RH  075%=      5-min Rain = 0
KMC1 221443Z 16007G12KT 20/15 A3001 RMK A01 T01960151  RH  076%=      5-min Rain = 0
KMC1 221444Z 18008KT 20/15 A3001 RMK A01 T01960149  RH  074%=      5-min Rain = 0
KMC1 221445Z 18009KT 20/15 A3001 RMK A01 T01960149  RH  074%=      5-min Rain = 0
KMC1 221446Z 17009KT 20/15 A3001 RMK A01 T01960149  RH  074%=      5-min Rain = 0
KMC1 221447Z 18009G14KT 20/15 A3001 RMK A01 T01970150  RH  074%=      5-min Rain = 0
KMC1 221448Z 19010KT 20/15 A3001 RMK A01 T01980150  RH  074%=      5-min Rain = 0
KMC1 221449Z 18011KT 20/15 A3001 RMK A01 T01980150  RH  073%=      5-min Rain = 0
KMC1 221450Z 17008G13KT 20/15 A3001 RMK A01 T01980149  RH  074%=      5-min Rain = 0
KMC1 221451Z 17009KT 20/15 A3001 RMK A01 T01980150  RH  074%=      5-min Rain = 0
KMC1 221452Z 17008KT 20/15 A3001 RMK A01 T01980150  RH  074%=      5-min Rain = 0
KMC1 221453Z 17008KT 20/15 A3001 RMK A01 T01990151  RH  073%=      5-min Rain = 0
KMC1 221454Z 17006KT 20/15 A3001 RMK A01 T02000150  RH  073%=      5-min Rain = 0
KMC1 221455Z 16006KT 20/15 A3001 RMK A01 T02000152  RH  074%=      5-min Rain = 0
KMC1 221456Z 18007KT 20/15 A3001 RMK A01 T02020152  RH  073%=      5-min Rain = 0
KMC1 221457Z 17010KT 20/15 A3001 RMK A01 T02020151  RH  072%=      5-min Rain = 0
KMC1 221458Z 17009KT 20/15 A3001 RMK A01 T02010150  RH  073%=      5-min Rain = 0
KMC1 221459Z 17010KT 20/15 A3001 RMK A01 T02000151  RH  073%=      5-min Rain = 0
KMC1 221500Z 16007KT 20/15 A30 RMK A01 T02000150  RH  073%=      5-min Rain = 0
KMC1 221501Z 16006KT 20/15 A30 RMK A01 T02000152  RH  074%=      5-min Rain = 0
KMC1 221502Z 17006KT 20/15 A30 RMK A01 T02010152  RH  073%=      5-min Rain = 0
KMC1 221503Z 16005KT 20/15 A30 RMK A01 T02010152  RH  073%=      5-min Rain = 0
KMC1 221504Z 16008KT 20/15 A30 RMK A01 T02020152  RH  073%=      5-min Rain = 0
KMC1 221505Z 16008KT 20/15 A30 RMK A01 T02020150  RH  072%=      5-min Rain = 0
KMC1 221506Z 18009KT 20/15 A30 RMK A01 T02020150  RH  072%=      5-min Rain = 0
KMC1 221507Z 17010KT 20/15 A30 RMK A01 T02010149  RH  072%=      5-min Rain = 0
KMC1 221508Z 18007KT 20/15 A30 RMK A01 T02000150  RH  072%=      5-min Rain = 0
KMC1 221509Z 16006KT 20/15 A30 RMK A01 T02010150  RH  073%=      5-min Rain = 0
KMC1 221510Z 15008KT 20/15 A30 RMK A01 T02010150  RH  073%=      5-min Rain = 0
KMC1 221511Z 14008KT 20/15 A30 RMK A01 T02020150  RH  072%=      5-min Rain = 0
KMC1 221512Z 15008KT 20/15 A30 RMK A01 T02020150  RH  072%=      5-min Rain = 0
KMC1 221513Z 14009KT 20/15 A30 RMK A01 T02020149  RH  071%=      5-min Rain = 0
KMC1 221514Z 17005KT 20/15 A30 RMK A01 T02030149  RH  071%=      5-min Rain = 0
KMC1 221515Z 15006KT 20/15 A30 RMK A01 T02030151  RH  072%=      5-min Rain = 0
KMC1 221516Z 15010G15KT 20/15 A30 RMK A01 T02040150  RH  071%=      5-min Rain = 0
KMC1 221517Z 15007KT 20/15 A30 RMK A01 T02040151  RH  071%=      5-min Rain = 0
KMC1 221518Z 14007KT 21/15 A30 RMK A01 T02050150  RH  071%=      5-min Rain = 0
KMC1 221519Z 14006KT 20/15 A30 RMK A01 T02040150  RH  071%=      5-min Rain = 0
KMC1 221520Z 16006KT 21/15 A30 RMK A01 T02050152  RH  072%=      5-min Rain = 0
KMC1 221521Z 15008KT 21/15 A30 RMK A01 T02060151  RH  071%=      5-min Rain = 0
KMC1 221522Z 15010KT 21/15 A30 RMK A01 T02050150  RH  070%=      5-min Rain = 0
KMC1 221523Z 16010KT 21/15 A30 RMK A01 T02050150  RH  071%=      5-min Rain = 0
KMC1 221524Z 17011KT 20/15 A30 RMK A01 T02040148  RH  070%=      5-min Rain = 0
KMC1 221525Z 14010G15KT 20/15 A30 RMK A01 T02040147  RH  070%=      5-min Rain = 0
KMC1 221526Z 15009KT 20/15 A30 RMK A01 T02030148  RH  070%=      5-min Rain = 0
KMC1 221527Z 15009G14KT 20/15 A30 RMK A01 T02030149  RH  071%=      5-min Rain = 0
KMC1 221528Z 15006G13KT 20/15 A30 RMK A01 T02030149  RH  071%=      5-min Rain = 0
KMC1 221529Z 15008KT 20/15 A30 RMK A01 T02030149  RH  071%=      5-min Rain = 0
KMC1 221530Z 16008KT 20/15 A30 RMK A01 T02040149  RH  070%=      5-min Rain = 0
KMC1 221531Z 16008KT 21/15 A30 RMK A01 T02050150  RH  071%=      5-min Rain = 0
KMC1 221532Z 15007KT 21/15 A3001 RMK A01 T02060150  RH  070%=      5-min Rain = 0
KMC1 221533Z 15008G13KT 21/15 A3001 RMK A01 T02060150  RH  070%=      5-min Rain = 0
KMC1 221534Z 15009G14KT 21/15 A3001 RMK A01 T02070149  RH  069%=      5-min Rain = 0
KMC1 221535Z 16004KT 21/15 A3001 RMK A01 T02070150  RH  070%=      5-min Rain = 0
KMC1 221536Z 15009KT 21/15 A3001 RMK A01 T02070151  RH  070%=      5-min Rain = 0
KMC1 221537Z 15010KT 21/15 A3001 RMK A01 T02070149  RH  069%=      5-min Rain = 0
KMC1 221538Z 15008KT 21/15 A3001 RMK A01 T02070149  RH  069%=      5-min Rain = 0
KMC1 221539Z 14009KT 21/15 A3001 RMK A01 T02060148  RH  070%=      5-min Rain = 0
KMC1 221540Z 14007KT 21/15 A3001 RMK A01 T02050149  RH  070%=      5-min Rain = 0
KMC1 221541Z 17005KT 21/15 A3001 RMK A01 T02050150  RH  070%=      5-min Rain = 0
KMC1 221542Z 16006KT 21/15 A3001 RMK A01 T02060149  RH  070%=      5-min Rain = 0
KMC1 221543Z 17009KT 21/15 A3001 RMK A01 T02060149  RH  070%=      5-min Rain = 0
KMC1 221544Z 16008KT 21/15 A3001 RMK A01 T02060148  RH  069%=      5-min Rain = 0
KMC1 221545Z 17006KT 21/15 A3001 RMK A01 T02060149  RH  070%=      5-min Rain = 0
KMC1 221546Z 17010KT 21/15 A3001 RMK A01 T02060149  RH  070%=      5-min Rain = 0
KMC1 221547Z 16008G13KT 21/15 A3001 RMK A01 T02060147  RH  069%=      5-min Rain = 0
KMC1 221548Z 16009KT 21/15 A3001 RMK A01 T02050147  RH  069%=      5-min Rain = 0
KMC1 221549Z 16010KT 20/15 A3001 RMK A01 T02040148  RH  070%=      5-min Rain = 0
KMC1 221550Z 16009KT 20/15 A3001 RMK A01 T02040147  RH  070%=      5-min Rain = 0
KMC1 221551Z 15008G14KT 20/15 A3001 RMK A01 T02040147  RH  070%=      5-min Rain = 0
KMC1 221552Z 17007KT 21/15 A3001 RMK A01 T02050147  RH  070%=      5-min Rain = 0
KMC1 221553Z 15008KT 21/15 A3001 RMK A01 T02050147  RH  069%=      5-min Rain = 0
KMC1 221554Z 15009KT 21/15 A3001 RMK A01 T02050146  RH  069%=      5-min Rain = 0
KMC1 221555Z 15011KT 21/15 A3001 RMK A01 T02050146  RH  069%=      5-min Rain = 0
KMC1 221556Z 16009KT 21/15 A3001 RMK A01 T02050146  RH  069%=      5-min Rain = 0
KMC1 221557Z 16010KT 21/15 A3001 RMK A01 T02050147  RH  069%=      5-min Rain = 0
KMC1 221558Z 17008KT 21/15 A3001 RMK A01 T02050146  RH  069%=      5-min Rain = 0
KMC1 221559Z 15007KT 21/15 A3001 RMK A01 T02050147  RH  069%=      5-min Rain = 0
KMC1 221600Z 15009KT 21/15 A3001 RMK A01 T02050146  RH  069%=      5-min Rain = 0
KMC1 221601Z 17009KT 21/15 A3001 RMK A01 T02050147  RH  069%=      5-min Rain = 0
KMC1 221602Z 17008KT 21/15 A3001 RMK A01 T02050147  RH  069%=      5-min Rain = 0
KMC1 221603Z 17008KT 21/15 A3001 RMK A01 T02060147  RH  069%=      5-min Rain = 0
KMC1 221604Z 17010KT 21/15 A3001 RMK A01 T02060147  RH  069%=      5-min Rain = 0
KMC1 221605Z 16010KT 21/15 A3002 RMK A01 T02060146  RH  069%=      5-min Rain = 0
KMC1 221606Z 16006KT 21/15 A3002 RMK A01 T02050147  RH  069%=      5-min Rain = 0
KMC1 221607Z 18007KT 21/15 A3002 RMK A01 T02050147  RH  069%=      5-min Rain = 0
KMC1 221608Z 15006KT 21/15 A3002 RMK A01 T02060148  RH  069%=      5-min Rain = 0
KMC1 221609Z 16005KT 21/15 A3002 RMK A01 T02070150  RH  070%=      5-min Rain = 0
KMC1 221610Z 15008KT 21/15 A3002 RMK A01 T02080149  RH  069%=      5-min Rain = 0
KMC1 221611Z 16008KT 21/15 A3002 RMK A01 T02080148  RH  068%=      5-min Rain = 0
KMC1 221612Z 17008KT 21/15 A3002 RMK A01 T02080148  RH  068%=      5-min Rain = 0
KMC1 221613Z 16010KT 21/15 A3002 RMK A01 T02090147  RH  068%=      5-min Rain = 0
KMC1 221614Z 17009KT 21/15 A3002 RMK A01 T02080148  RH  068%=      5-min Rain = 0
KMC1 221615Z 17008KT 21/15 A3002 RMK A01 T02090148  RH  068%=      5-min Rain = 0
KMC1 221616Z 15008KT 21/15 A3002 RMK A01 T02090149  RH  069%=      5-min Rain = 0
KMC1 221617Z 15008KT 21/15 A3002 RMK A01 T02090149  RH  069%=      5-min Rain = 0
KMC1 221618Z 15009KT 21/15 A3002 RMK A01 T02090149  RH  068%=      5-min Rain = 0
KMC1 221619Z 14007KT 21/15 A3001 RMK A01 T02100148  RH  068%=      5-min Rain = 0
KMC1 221620Z 15006KT 21/15 A3001 RMK A01 T02110150  RH  068%=      5-min Rain = 0
KMC1 221621Z 16007KT 21/15 A3001 RMK A01 T02120151  RH  068%=      5-min Rain = 0
KMC1 221622Z 17007KT 21/15 A3001 RMK A01 T02130149  RH  067%=      5-min Rain = 0
KMC1 221623Z 16007KT 21/15 A3001 RMK A01 T02130151  RH  067%=      5-min Rain = 0
KMC1 221624Z 16007KT 21/15 A3001 RMK A01 T02140151  RH  067%=      5-min Rain = 0
KMC1 221625Z 17009KT 22/15 A3002 RMK A01 T02150151  RH  067%=      5-min Rain = 0
KMC1 221626Z 16006KT 22/15 A3002 RMK A01 T02150151  RH  067%=      5-min Rain = 0
KMC1 221627Z 14007KT 22/15 A3001 RMK A01 T02160152  RH  067%=      5-min Rain = 0
KMC1 221628Z 16005KT 22/16 A3001 RMK A01 T02170155  RH  068%=      5-min Rain = 0
KMC1 221629Z 16006KT 22/16 A3001 RMK A01 T02190155  RH  067%=      5-min Rain = 0
KMC1 221630Z 19005KT 22/15 A3001 RMK A01 T02220154  RH  065%=      5-min Rain = 0
KMC1 221631Z 18008G14KT 22/15 A3001 RMK A01 T02220154  RH  065%=      5-min Rain = 0
KMC1 221632Z 15006KT 22/15 A3001 RMK A01 T02220151  RH  064%=      5-min Rain = 0
KMC1 221633Z 16006KT 22/15 A3001 RMK A01 T02200153  RH  065%=      5-min Rain = 0
KMC1 221634Z 16009KT 22/15 A3001 RMK A01 T02200152  RH  065%=      5-min Rain = 0
KMC1 221635Z 14007G12KT 22/15 A3001 RMK A01 T02210152  RH  065%=      5-min Rain = 0
KMC1 221636Z 14008G13KT 22/15 A3001 RMK A01 T02210151  RH  064%=      5-min Rain = 0
KMC1 221637Z 13008KT 22/15 A3001 RMK A01 T02220151  RH  064%=      5-min Rain = 0
KMC1 221638Z 14007KT 22/15 A3001 RMK A01 T02220151  RH  064%=      5-min Rain = 0
KMC1 221639Z 14006KT 22/15 A3001 RMK A01 T02220153  RH  065%=      5-min Rain = 0
KMC1 221640Z 15006KT 22/15 A3001 RMK A01 T02230152  RH  064%=      5-min Rain = 0
KMC1 221641Z 15006KT 22/15 A3001 RMK A01 T02240153  RH  064%=      5-min Rain = 0
KMC1 221642Z 14010KT 22/15 A3001 RMK A01 T02230152  RH  064%=      5-min Rain = 0
KMC1 221643Z 14007KT 22/15 A3001 RMK A01 T02230151  RH  064%=      5-min Rain = 0
KMC1 221644Z 15008KT 22/15 A3001 RMK A01 T02220152  RH  065%=      5-min Rain = 0
KMC1 221645Z 14009KT 22/15 A3001 RMK A01 T02220151  RH  064%=      5-min Rain = 0
KMC1 221646Z 14007KT 22/15 A3001 RMK A01 T02220152  RH  064%=      5-min Rain = 0
KMC1 221647Z 14006KT 22/15 A3001 RMK A01 T02230152  RH  064%=      5-min Rain = 0
KMC1 221648Z 15009G14KT 22/15 A3001 RMK A01 T02240151  RH  063%=      5-min Rain = 0
KMC1 221649Z 14008KT 22/15 A3001 RMK A01 T02230150  RH  063%=      5-min Rain = 0
KMC1 221650Z 17009KT 22/15 A3001 RMK A01 T02220150  RH  064%=      5-min Rain = 0
KMC1 221651Z 16007KT 22/15 A3001 RMK A01 T02220151  RH  064%=      5-min Rain = 0
KMC1 221652Z 17007KT 22/15 A3001 RMK A01 T02220150  RH  064%=      5-min Rain = 0
KMC1 221653Z 18007KT 22/15 A3001 RMK A01 T02220150  RH  064%=      5-min Rain = 0
KMC1 221654Z 17007KT 22/15 A3001 RMK A01 T02220150  RH  064%=      5-min Rain = 0
KMC1 221655Z 17007KT 22/15 A3001 RMK A01 T02220150  RH  063%=      5-min Rain = 0
KMC1 221656Z 15006KT 22/15 A3001 RMK A01 T02220149  RH  063%=      5-min Rain = 0
KMC1 221657Z 16007KT 22/15 A3001 RMK A01 T02230152  RH  064%=      5-min Rain = 0
KMC1 221658Z 16007KT 23/15 A3001 RMK A01 T02250152  RH  063%=      5-min Rain = 0
KMC1 221659Z 16007KT 23/15 A3001 RMK A01 T02250150  RH  063%=      5-min Rain = 0
KMC1 221700Z 18007KT 22/15 A3001 RMK A01 T02240152  RH  063%=      5-min Rain = 0
KMC1 221701Z 16007KT 23/15 A3001 RMK A01 T02250151  RH  063%=      5-min Rain = 0
KMC1 221702Z 17008KT 23/15 A3001 RMK A01 T02250152  RH  063%=      5-min Rain = 0
KMC1 221703Z 18008KT 23/15 A3001 RMK A01 T02250150  RH  063%=      5-min Rain = 0
KMC1 221704Z 18009KT 22/15 A3001 RMK A01 T02240151  RH  063%=      5-min Rain = 0
KMC1 221705Z 17009KT 22/15 A3001 RMK A01 T02240150  RH  063%=      5-min Rain = 0
KMC1 221706Z 17007KT 22/15 A3001 RMK A01 T02230149  RH  063%=      5-min Rain = 0
KMC1 221707Z 16007KT 22/15 A3001 RMK A01 T02220150  RH  064%=      5-min Rain = 0
KMC1 221708Z 15007KT 22/15 A3001 RMK A01 T02220151  RH  064%=      5-min Rain = 0
KMC1 221709Z 16008KT 22/15 A3001 RMK A01 T02230151  RH  064%=      5-min Rain = 0
KMC1 221710Z 16007KT 22/15 A3001 RMK A01 T02230150  RH  063%=      5-min Rain = 0
KMC1 221711Z 17008KT 22/15 A3001 RMK A01 T02230150  RH  063%=      5-min Rain = 0
KMC1 221712Z 16006KT 22/15 A3001 RMK A01 T02230150  RH  063%=      5-min Rain = 0
KMC1 221713Z 16007KT 22/15 A3001 RMK A01 T02240152  RH  064%=      5-min Rain = 0
KMC1 221714Z 15008KT 23/15 A3001 RMK A01 T02250152  RH  064%=      5-min Rain = 0
KMC1 221715Z 14006KT 23/15 A3001 RMK A01 T02260152  RH  063%=      5-min Rain = 0
KMC1 221716Z 16004KT 23/15 A3001 RMK A01 T02260151  RH  062%=      5-min Rain = 0
KMC1 221717Z 18005KT 23/15 A3001 RMK A01 T02260151  RH  063%=      5-min Rain = 0
KMC1 221718Z 14003KT 23/15 A3001 RMK A01 T02260153  RH  064%=      5-min Rain = 0
KMC1 221719Z 15005KT 23/15 A3001 RMK A01 T02270152  RH  063%=      5-min Rain = 0
KMC1 221720Z 17007KT 23/15 A3001 RMK A01 T02280152  RH  062%=      5-min Rain = 0
KMC1 221721Z 18006G11KT 23/15 A3001 RMK A01 T02280151  RH  062%=      5-min Rain = 0
KMC1 221722Z 17008KT 23/15 A3001 RMK A01 T02280150  RH  061%=      5-min Rain = 0
KMC1 221723Z 14005KT 23/15 A3001 RMK A01 T02280152  RH  062%=      5-min Rain = 0
KMC1 221724Z 13007KT 23/15 A3001 RMK A01 T02300153  RH  062%=      5-min Rain = 0
KMC1 221725Z 16010KT 23/15 A3001 RMK A01 T02310152  RH  061%=      5-min Rain = 0
KMC1 221726Z 15009KT 23/15 A3001 RMK A01 T02290151  RH  061%=      5-min Rain = 0
KMC1 221727Z 15005KT 23/15 A3001 RMK A01 T02280151  RH  062%=      5-min Rain = 0
KMC1 221728Z 18005KT 23/15 A3001 RMK A01 T02280152  RH  062%=      5-min Rain = 0
KMC1 221729Z 17008KT 23/15 A3001 RMK A01 T02280151  RH  062%=      5-min Rain = 0
KMC1 221730Z 16008KT 23/15 A3001 RMK A01 T02290151  RH  062%=      5-min Rain = 0
KMC1 221731Z 18007KT 23/15 A3001 RMK A01 T02280152  RH  062%=      5-min Rain = 0
KMC1 221732Z 16007KT 23/15 A3001 RMK A01 T02280151  RH  062%=      5-min Rain = 0
KMC1 221733Z 15007KT 23/15 A3001 RMK A01 T02280152  RH  062%=      5-min Rain = 0
KMC1 221734Z 15008KT 23/15 A3001 RMK A01 T02280150  RH  061%=      5-min Rain = 0
KMC1 221735Z 13007KT 23/15 A3001 RMK A01 T02280151  RH  062%=      5-min Rain = 0
KMC1 221736Z 13007KT 23/15 A3001 RMK A01 T02280151  RH  062%=      5-min Rain = 0
KMC1 221737Z 14009KT 23/15 A3001 RMK A01 T02290152  RH  062%=      5-min Rain = 0
KMC1 221738Z 14010KT 23/15 A3001 RMK A01 T02300148  RH  060%=      5-min Rain = 0
KMC1 221739Z 15009G15KT 23/15 A3001 RMK A01 T02280148  RH  060%=      5-min Rain = 0
KMC1 221740Z 13011KT 23/15 A3001 RMK A01 T02280148  RH  061%=      5-min Rain = 0
KMC1 221741Z 14007KT 23/15 A3001 RMK A01 T02260148  RH  061%=      5-min Rain = 0
KMC1 221742Z 14007KT 23/15 A3001 RMK A01 T02260149  RH  062%=      5-min Rain = 0
KMC1 221743Z 16008KT 23/15 A3001 RMK A01 T02270151  RH  062%=      5-min Rain = 0
KMC1 221744Z 14006KT 23/15 A3001 RMK A01 T02280149  RH  061%=      5-min Rain = 0
KMC1 221745Z 15007KT 23/15 A3001 RMK A01 T02280151  RH  062%=      5-min Rain = 0
KMC1 221746Z 14006KT 23/15 A3002 RMK A01 T02300151  RH  061%=      5-min Rain = 0
KMC1 221747Z 15007G12KT 23/15 A3002 RMK A01 T02310150  RH  060%=      5-min Rain = 0
KMC1 221748Z 16008KT 23/15 A3002 RMK A01 T02310149  RH  060%=      5-min Rain = 0
KMC1 221749Z 15008KT 23/15 A3002 RMK A01 T02310149  RH  060%=      5-min Rain = 0
KMC1 221750Z 14009G14KT 23/15 A3002 RMK A01 T02300149  RH  060%=      5-min Rain = 0
KMC1 221751Z 14007KT 23/15 A3002 RMK A01 T02300147  RH  060%=      5-min Rain = 0
KMC1 221752Z 15007KT 23/15 A3002 RMK A01 T02300148  RH  060%=      5-min Rain = 0
KMC1 221753Z 16007KT 23/15 A3002 RMK A01 T02310149  RH  060%=      5-min Rain = 0
KMC1 221754Z 15008KT 23/15 A3002 RMK A01 T02310147  RH  059%=      5-min Rain = 0
KMC1 221755Z 17008KT 23/15 A3002 RMK A01 T02310148  RH  060%=      5-min Rain = 0
KMC1 221756Z 18007KT 23/15 A3002 RMK A01 T02310148  RH  059%=      5-min Rain = 0
KMC1 221757Z 17009KT 23/15 A3002 RMK A01 T02320148  RH  059%=      5-min Rain = 0
KMC1 221758Z 16007KT 23/15 A3002 RMK A01 T02320147  RH  059%=      5-min Rain = 0
KMC1 221759Z 18006KT 23/15 A3002 RMK A01 T02300148  RH  060%=      5-min Rain = 0
KMC1 221800Z 16005KT 23/15 A3002 RMK A01 T02300149  RH  060%=      5-min Rain = 0
KMC1 221801Z 16010KT 23/15 A3002 RMK A01 T02310148  RH  059%=      5-min Rain = 0
KMC1 221802Z 17008KT 23/15 A3002 RMK A01 T02300146  RH  059%=      5-min Rain = 0
KMC1 221803Z 16006KT 23/15 A3002 RMK A01 T02290148  RH  060%=      5-min Rain = 0
KMC1 221804Z 15007KT 23/15 A3001 RMK A01 T02290148  RH  060%=      5-min Rain = 0
KMC1 221805Z 16005KT 23/15 A3001 RMK A01 T02290149  RH  060%=      5-min Rain = 0
KMC1 221806Z 14007G12KT 23/15 A3001 RMK A01 T02300151  RH  061%=      5-min Rain = 0
KMC1 221807Z 14009KT 23/15 A3001 RMK A01 T02320149  RH  060%=      5-min Rain = 0
KMC1 221808Z 14008KT 23/15 A3001 RMK A01 T02310149  RH  060%=      5-min Rain = 0
KMC1 221809Z 14008KT 23/15 A3001 RMK A01 T02310148  RH  059%=      5-min Rain = 0
KMC1 221810Z 13009KT 23/15 A3001 RMK A01 T02310148  RH  060%=      5-min Rain = 0
KMC1 221811Z 14010KT 23/15 A3001 RMK A01 T02310147  RH  059%=      5-min Rain = 0
KMC1 221812Z 15009KT 23/15 A3001 RMK A01 T02310148  RH  059%=      5-min Rain = 0
KMC1 221813Z 15008KT 23/15 A3001 RMK A01 T02300148  RH  060%=      5-min Rain = 0
KMC1 221814Z 14009KT 23/15 A3001 RMK A01 T02310147  RH  059%=      5-min Rain = 0
KMC1 221815Z 14011KT 23/15 A3001 RMK A01 T02300148  RH  060%=      5-min Rain = 0
KMC1 221816Z 14009KT 23/15 A30 RMK A01 T02290146  RH  059%=      5-min Rain = 0
KMC1 221817Z 14005KT 23/15 A30 RMK A01 T02280147  RH  060%=      5-min Rain = 0
KMC1 221818Z 16007KT 23/15 A30 RMK A01 T02290148  RH  060%=      5-min Rain = 0
KMC1 221819Z 14007KT 23/15 A30 RMK A01 T02300148  RH  060%=      5-min Rain = 0
KMC1 221820Z 13007KT 23/15 A30 RMK A01 T02310149  RH  060%=      5-min Rain = 0
KMC1 221821Z 12009KT 23/15 A30 RMK A01 T02320151  RH  060%=      5-min Rain = 0
KMC1 221822Z 14009KT 23/15 A30 RMK A01 T02320149  RH  059%=      5-min Rain = 0
KMC1 221823Z 13011KT 23/15 A30 RMK A01 T02320149  RH  060%=      5-min Rain = 0
KMC1 221824Z 14008KT 23/15 A30 RMK A01 T02300148  RH  060%=      5-min Rain = 0
KMC1 221825Z 14009KT 23/15 A30 RMK A01 T02300150  RH  061%=      5-min Rain = 0
KMC1 221826Z 14009KT 23/15 A30 RMK A01 T02300148  RH  060%=      5-min Rain = 0
KMC1 221827Z 15009G14KT 23/15 A30 RMK A01 T02300148  RH  060%=      5-min Rain = 0
KMC1 221828Z 15008KT 23/15 A30 RMK A01 T02300149  RH  060%=      5-min Rain = 0
KMC1 221829Z 13010KT 23/15 A30 RMK A01 T02320148  RH  059%=      5-min Rain = 0
KMC1 221830Z 13008KT 23/15 A30 RMK A01 T02320149  RH  059%=      5-min Rain = 0
KMC1 221831Z 13006KT 23/15 A30 RMK A01 T02330152  RH  060%=      5-min Rain = 0
KMC1 221832Z 13009G14KT 24/15 A30 RMK A01 T02350152  RH  059%=      5-min Rain = 0
KMC1 221833Z 13012KT 24/15 A30 RMK A01 T02360149  RH  058%=      5-min Rain = 0
KMC1 221834Z 14008KT 24/15 A30 RMK A01 T02350149  RH  058%=      5-min Rain = 0
KMC1 221835Z 16009KT 24/15 A30 RMK A01 T02350150  RH  059%=      5-min Rain = 0
KMC1 221836Z 15008G13KT 24/15 A30 RMK A01 T02360149  RH  058%=      5-min Rain = 0
KMC1 221837Z 14008KT 24/15 A30 RMK A01 T02360148  RH  058%=      5-min Rain = 0
KMC1 221838Z 16005KT 24/15 A30 RMK A01 T02360150  RH  058%=      5-min Rain = 0
KMC1 221839Z 14005KT 24/15 A30 RMK A01 T02370151  RH  058%=      5-min Rain = 0
KMC1 221840Z 15006KT 24/15 A30 RMK A01 T02380150  RH  058%=      5-min Rain = 0
KMC1 221841Z 14010KT 24/15 A30 RMK A01 T02390148  RH  057%=      5-min Rain = 0
KMC1 221842Z 16010KT 24/15 A30 RMK A01 T02390146  RH  056%=      5-min Rain = 0
KMC1 221843Z 16010KT 24/15 A30 RMK A01 T02390146  RH  056%=      5-min Rain = 0
KMC1 221844Z 15011KT 24/15 A30 RMK A01 T02390145  RH  056%=      5-min Rain = 0
KMC1 221845Z 14009KT 24/14 A30 RMK A01 T02390144  RH  055%=      5-min Rain = 0
KMC1 221846Z 14008KT 24/14 A30 RMK A01 T02380143  RH  055%=      5-min Rain = 0
KMC1 221847Z 15008KT 24/15 A30 RMK A01 T02380146  RH  056%=      5-min Rain = 0
KMC1 221848Z 16007KT 24/15 A30 RMK A01 T02390146  RH  056%=      5-min Rain = 0
KMC1 221849Z 16010KT 24/15 A30 RMK A01 T02400147  RH  056%=      5-min Rain = 0
KMC1 221850Z 14010KT 24/15 A30 RMK A01 T02400145  RH  055%=      5-min Rain = 0
KMC1 221851Z 15004KT 24/15 A30 RMK A01 T02410148  RH  056%=      5-min Rain = 0
KMC1 221852Z 15005KT 24/15 A30 RMK A01 T02440151  RH  056%=      5-min Rain = 0
KMC1 221853Z 15005G11KT 25/15 A30 RMK A01 T02470150  RH  055%=      5-min Rain = 0
KMC1 221854Z 15008KT 25/15 A30 RMK A01 T02480149  RH  054%=      5-min Rain = 0
KMC1 221855Z 14009KT 25/15 A30 RMK A01 T02480150  RH  054%=      5-min Rain = 0
KMC1 221856Z 14006G11KT 25/15 A30 RMK A01 T02460148  RH  055%=      5-min Rain = 0
KMC1 221857Z 13010KT 25/15 A30 RMK A01 T02450150  RH  055%=      5-min Rain = 0
KMC1 221858Z 14009KT 25/15 A30 RMK A01 T02450146  RH  054%=      5-min Rain = 0
KMC1 221859Z 14008KT 24/15 A30 RMK A01 T02430147  RH  055%=      5-min Rain = 0
KMC1 221900Z 14006KT 24/15 A30 RMK A01 T02420146  RH  055%=      5-min Rain = 0
KMC1 221901Z 15005KT 24/15 A30 RMK A01 T02430147  RH  055%=      5-min Rain = 0
KMC1 221902Z 14006KT 24/15 A30 RMK A01 T02440149  RH  056%=      5-min Rain = 0
KMC1 221903Z 13010KT 25/15 A30 RMK A01 T02450148  RH  055%=      5-min Rain = 0
KMC1 221904Z 14009KT 25/14 A30 RMK A01 T02450144  RH  053%=      5-min Rain = 0
KMC1 221905Z 13010KT 24/14 A30 RMK A01 T02430143  RH  054%=      5-min Rain = 0
KMC1 221906Z 14009KT 24/14 A30 RMK A01 T02410142  RH  054%=      5-min Rain = 0
KMC1 221907Z 14009KT 24/14 A2999 RMK A01 T02400142  RH  054%=      5-min Rain = 0
KMC1 221908Z 12009KT 24/14 A2999 RMK A01 T02400141  RH  054%=      5-min Rain = 0
KMC1 221909Z 14009KT 24/14 A2999 RMK A01 T02400141  RH  054%=      5-min Rain = 0
KMC1 221910Z 14009KT 24/14 A30 RMK A01 T02400140  RH  053%=      5-min Rain = 0
KMC1 221911Z 15009KT 24/14 A30 RMK A01 T02400138  RH  053%=      5-min Rain = 0
KMC1 221912Z 15006KT 24/14 A30 RMK A01 T02400142  RH  054%=      5-min Rain = 0
KMC1 221913Z 15004KT 24/14 A30 RMK A01 T02410142  RH  054%=      5-min Rain = 0
KMC1 221914Z 14006KT 24/14 A30 RMK A01 T02430142  RH  053%=      5-min Rain = 0
KMC1 221915Z 16006KT 24/14 A30 RMK A01 T02430142  RH  053%=      5-min Rain = 0
KMC1 221916Z 15010KT 24/14 A30 RMK A01 T02430140  RH  053%=      5-min Rain = 0
KMC1 221917Z 15006KT 24/14 A30 RMK A01 T02420139  RH  053%=      5-min Rain = 0
KMC1 221918Z 15006KT 24/14 A2999 RMK A01 T02420140  RH  053%=      5-min Rain = 0
KMC1 221919Z 14007G13KT 24/14 A2999 RMK A01 T02430141  RH  053%=      5-min Rain = 0
KMC1 221920Z 15010KT 24/14 A30 RMK A01 T02440140  RH  052%=      5-min Rain = 0
KMC1 221921Z 15009G14KT 24/14 A30 RMK A01 T02440141  RH  052%=      5-min Rain = 0
KMC1 221922Z 15007G12KT 24/14 A30 RMK A01 T02440141  RH  053%=      5-min Rain = 0
KMC1 221923Z 14004KT 25/14 A30 RMK A01 T02450144  RH  053%=      5-min Rain = 0
KMC1 221924Z 16006KT 25/14 A30 RMK A01 T02470144  RH  053%=      5-min Rain = 0
KMC1 221925Z 14006KT 25/14 A30 RMK A01 T02490142  RH  051%=      5-min Rain = 0
KMC1 221926Z 15006KT 25/14 A30 RMK A01 T02510142  RH  051%=      5-min Rain = 0
KMC1 221927Z 16006KT 25/14 A30 RMK A01 T02510142  RH  051%=      5-min Rain = 0
KMC1 221928Z 16009KT 25/14 A30 RMK A01 T02530140  RH  050%=      5-min Rain = 0
KMC1 221929Z 15007KT 25/14 A30 RMK A01 T02510141  RH  050%=      5-min Rain = 0
KMC1 221930Z 14010KT 25/14 A30 RMK A01 T02520143  RH  051%=      5-min Rain = 0
KMC1 221931Z 14008G14KT 25/14 A30 RMK A01 T02540141  RH  050%=      5-min Rain = 0
KMC1 221932Z 14008G13KT 26/14 A30 RMK A01 T02550141  RH  049%=      5-min Rain = 0
KMC1 221933Z 13009KT 26/14 A30 RMK A01 T02550141  RH  049%=      5-min Rain = 0
KMC1 221934Z 14008KT 26/14 A30 RMK A01 T02550141  RH  049%=      5-min Rain = 0
KMC1 221935Z 15006KT 26/14 A30 RMK A01 T02550142  RH  050%=      5-min Rain = 0
KMC1 221936Z 16008KT 26/14 A30 RMK A01 T02560143  RH  050%=      5-min Rain = 0
KMC1 221937Z 16008KT 26/14 A2999 RMK A01 T02550144  RH  050%=      5-min Rain = 0
KMC1 221938Z 16009KT 26/14 A2999 RMK A01 T02550141  RH  049%=      5-min Rain = 0
KMC1 221939Z 16010KT 25/14 A30 RMK A01 T02540139  RH  049%=      5-min Rain = 0
KMC1 221940Z 15006KT 25/14 A30 RMK A01 T02530138  RH  049%=      5-min Rain = 0
KMC1 221941Z 15007KT 25/14 A30 RMK A01 T02530139  RH  049%=      5-min Rain = 0
KMC1 221942Z 15007KT 25/14 A30 RMK A01 T02530139  RH  049%=      5-min Rain = 0
KMC1 221943Z 15008KT 25/14 A30 RMK A01 T02530138  RH  049%=      5-min Rain = 0
KMC1 221944Z 14005KT 25/14 A30 RMK A01 T02530140  RH  050%=      5-min Rain = 0
KMC1 221945Z 15007KT 25/14 A30 RMK A01 T02530141  RH  050%=      5-min Rain = 0
KMC1 221946Z 15010KT 25/14 A2999 RMK A01 T02540139  RH  049%=      5-min Rain = 0
KMC1 221947Z 15008KT 25/14 A30 RMK A01 T02530139  RH  049%=      5-min Rain = 0
KMC1 221948Z 17008KT 25/14 A2999 RMK A01 T02530140  RH  049%=      5-min Rain = 0
KMC1 221949Z 17007KT 25/14 A2999 RMK A01 T02530138  RH  049%=      5-min Rain = 0
KMC1 221950Z 15005KT 25/14 A2999 RMK A01 T02520138  RH  049%=      5-min Rain = 0
KMC1 221951Z 15005KT 25/14 A2999 RMK A01 T02510139  RH  050%=      5-min Rain = 0
KMC1 221952Z 13005KT 25/14 A2999 RMK A01 T02520141  RH  050%=      5-min Rain = 0
KMC1 221953Z 14008KT 25/14 A2999 RMK A01 T02520139  RH  049%=      5-min Rain = 0
KMC1 221954Z 12007KT 25/14 A2999 RMK A01 T02520138  RH  049%=      5-min Rain = 0
KMC1 221955Z 12007KT 25/14 A2999 RMK A01 T02520139  RH  050%=      5-min Rain = 0
KMC1 221956Z 11008KT 25/14 A2999 RMK A01 T02520139  RH  049%=      5-min Rain = 0
KMC1 221957Z 11009KT 25/14 A2999 RMK A01 T02520139  RH  049%=      5-min Rain = 0
KMC1 221958Z 13009KT 25/14 A2999 RMK A01 T02530139  RH  049%=      5-min Rain = 0
KMC1 221959Z 14009G14KT 25/14 A2999 RMK A01 T02530138  RH  049%=      5-min Rain = 0
KMC1 222000Z 16009KT 25/14 A2999 RMK A01 T02530137  RH  049%=      5-min Rain = 0
KMC1 222001Z 15007KT 25/14 A2999 RMK A01 T02530135  RH  048%=      5-min Rain = 0
KMC1 222002Z 13009KT 25/14 A2999 RMK A01 T02540137  RH  048%=      5-min Rain = 0
KMC1 222003Z 14009KT 25/14 A2999 RMK A01 T02530135  RH  048%=      5-min Rain = 0
KMC1 222004Z 14009KT 25/14 A2999 RMK A01 T02530135  RH  048%=      5-min Rain = 0
KMC1 222005Z 13009KT 25/14 A2999 RMK A01 T02530135  RH  048%=      5-min Rain = 0
KMC1 222006Z 15006KT 25/13 A2999 RMK A01 T02530134  RH  048%=      5-min Rain = 0
KMC1 222007Z 15006KT 26/14 A2998 RMK A01 T02550137  RH  048%=      5-min Rain = 0
KMC1 222008Z 14007KT 26/14 A2998 RMK A01 T02560136  RH  047%=      5-min Rain = 0
KMC1 222009Z 15007KT 26/14 A2998 RMK A01 T02580138  RH  047%=      5-min Rain = 0
KMC1 222010Z 16006KT 26/14 A2998 RMK A01 T02590138  RH  047%=      5-min Rain = 0
KMC1 222011Z 14005KT 26/14 A2998 RMK A01 T02600138  RH  047%=      5-min Rain = 0
KMC1 222012Z 13010G16KT 26/14 A2998 RMK A01 T02620137  RH  046%=      5-min Rain = 0
KMC1 222013Z 15006KT 26/14 A2998 RMK A01 T02630135  RH  045%=      5-min Rain = 0
KMC1 222014Z 14008KT 26/13 A2998 RMK A01 T02640134  RH  044%=      5-min Rain = 0
KMC1 222015Z 15004KT 26/13 A2998 RMK A01 T02640134  RH  045%=      5-min Rain = 0
KMC1 222016Z 14005KT 27/14 A2998 RMK A01 T02660135  RH  044%=      5-min Rain = 0
KMC1 222017Z 15005KT 27/13 A2998 RMK A01 T02670134  RH  044%=      5-min Rain = 0
KMC1 222018Z 15008G16KT 27/13 A2998 RMK A01 T02680132  RH  043%=      5-min Rain = 0
KMC1 222019Z 14009KT 27/13 A2998 RMK A01 T02680129  RH  042%=      5-min Rain = 0
KMC1 222020Z 14012KT 27/13 A2998 RMK A01 T02660125  RH  042%=      5-min Rain = 0
KMC1 222021Z 14009KT 26/13 A2998 RMK A01 T02630125  RH  042%=      5-min Rain = 0
KMC1 222022Z 14010KT 26/13 A2998 RMK A01 T02620126  RH  043%=      5-min Rain = 0
KMC1 222023Z 15010KT 26/13 A2998 RMK A01 T02610127  RH  043%=      5-min Rain = 0
KMC1 222024Z 15009KT 26/13 A2998 RMK A01 T02610128  RH  044%=      5-min Rain = 0
KMC1 222025Z 14009G14KT 26/13 A2998 RMK A01 T02600127  RH  044%=      5-min Rain = 0
KMC1 222026Z 15012KT 26/13 A2998 RMK A01 T02600127  RH  044%=      5-min Rain = 0
KMC1 222027Z 15010G15KT 26/13 A2998 RMK A01 T02590127  RH  044%=      5-min Rain = 0
KMC1 222028Z 16011G16KT 26/13 A2998 RMK A01 T02580125  RH  043%=      5-min Rain = 0
KMC1 222029Z 15010KT 26/13 A2998 RMK A01 T02580127  RH  044%=      5-min Rain = 0
KMC1 222030Z 13008KT 26/13 A2998 RMK A01 T02580127  RH  044%=      5-min Rain = 0
KMC1 222031Z 13007KT 26/13 A2998 RMK A01 T02580126  RH  044%=      5-min Rain = 0
KMC1 222032Z 15007KT 26/13 A2998 RMK A01 T02580127  RH  044%=      5-min Rain = 0
KMC1 222033Z 16005G11KT 26/13 A2998 RMK A01 T02580129  RH  045%=      5-min Rain = 0
KMC1 222034Z 16008KT 26/13 A2998 RMK A01 T02590128  RH  044%=      5-min Rain = 0
KMC1 222035Z 15008KT 26/13 A2998 RMK A01 T02600129  RH  044%=      5-min Rain = 0
KMC1 222036Z 15006KT 26/13 A2998 RMK A01 T02600131  RH  045%=      5-min Rain = 0
KMC1 222037Z 15006KT 26/13 A2998 RMK A01 T02620130  RH  044%=      5-min Rain = 0
KMC1 222038Z 14006KT 26/13 A2998 RMK A01 T02620129  RH  044%=      5-min Rain = 0
KMC1 222039Z 14009KT 26/13 A2998 RMK A01 T02630128  RH  043%=      5-min Rain = 0
KMC1 222040Z 14007KT 26/13 A2998 RMK A01 T02630128  RH  043%=      5-min Rain = 0
KMC1 222041Z 13008G13KT 26/13 A2997 RMK A01 T02630128  RH  043%=      5-min Rain = 0
KMC1 222042Z 13007KT 26/13 A2997 RMK A01 T02630127  RH  043%=      5-min Rain = 0
KMC1 222043Z 13007KT 26/13 A2997 RMK A01 T02630128  RH  043%=      5-min Rain = 0
KMC1 222044Z 14008KT 26/13 A2997 RMK A01 T02630128  RH  043%=      5-min Rain = 0
KMC1 222045Z 13007KT 26/13 A2997 RMK A01 T02630129  RH  043%=      5-min Rain = 0
KMC1 222046Z 14008KT 26/13 A2997 RMK A01 T02630129  RH  043%=      5-min Rain = 0
KMC1 222047Z 13006KT 26/13 A2997 RMK A01 T02630129  RH  044%=      5-min Rain = 0
KMC1 222048Z 12007KT 26/13 A2997 RMK A01 T02630131  RH  044%=      5-min Rain = 0
KMC1 222049Z 13010KT 26/13 A2997 RMK A01 T02630128  RH  043%=      5-min Rain = 0
KMC1 222050Z 13009KT 26/13 A2997 RMK A01 T02620126  RH  043%=      5-min Rain = 0
KMC1 222051Z 14006KT 26/13 A2997 RMK A01 T02610127  RH  044%=      5-min Rain = 0
KMC1 222052Z 14009KT 26/13 A2997 RMK A01 T02610130  RH  044%=      5-min Rain = 0
KMC1 222053Z 12010KT 26/13 A2997 RMK A01 T02620129  RH  044%=      5-min Rain = 0
KMC1 222054Z 12009KT 26/13 A2997 RMK A01 T02620131  RH  044%=      5-min Rain = 0
KMC1 222055Z 11011KT 26/13 A2997 RMK A01 T02630131  RH  044%=      5-min Rain = 0
KMC1 222056Z 13008KT 26/13 A2997 RMK A01 T02620132  RH  044%=      5-min Rain = 0
KMC1 222057Z 11010KT 26/13 A2996 RMK A01 T02630132  RH  044%=      5-min Rain = 0
KMC1 222058Z 10009KT 27/13 A2996 RMK A01 T02650132  RH  044%=      5-min Rain = 0
KMC1 222059Z 12011KT 27/13 A2996 RMK A01 T02650133  RH  044%=      5-min Rain = 0
KMC1 222100Z 13010KT 27/13 A2996 RMK A01 T02660133  RH  044%=      5-min Rain = 0
KMC1 222101Z 14009KT 27/13 A2996 RMK A01 T02680134  RH  044%=      5-min Rain = 0
KMC1 222102Z 14011KT 27/13 A2996 RMK A01 T02700132  RH  043%=      5-min Rain = 0
KMC1 222103Z 13011KT 27/13 A2996 RMK A01 T02690130  RH  042%=      5-min Rain = 0
KMC1 222104Z 15008KT 27/13 A2996 RMK A01 T02680133  RH  043%=      5-min Rain = 0
KMC1 222105Z 14008KT 27/13 A2996 RMK A01 T02690133  RH  043%=      5-min Rain = 0
KMC1 222106Z 14008G13KT 27/13 A2996 RMK A01 T02700129  RH  042%=      5-min Rain = 0
KMC1 222107Z 12006KT 27/13 A2996 RMK A01 T02690129  RH  042%=      5-min Rain = 0
KMC1 222108Z 13007KT 27/13 A2996 RMK A01 T02690133  RH  043%=      5-min Rain = 0
KMC1 222109Z 14005KT 27/13 A2996 RMK A01 T02680134  RH  043%=      5-min Rain = 0
KMC1 222110Z 15007KT 27/14 A2996 RMK A01 T02690135  RH  044%=      5-min Rain = 0
KMC1 222111Z 14006KT 27/14 A2996 RMK A01 T02710136  RH  043%=      5-min Rain = 0
KMC1 222112Z 13006G11KT 27/14 A2996 RMK A01 T02720138  RH  044%=      5-min Rain = 0
KMC1 222113Z 13009KT 27/14 A2996 RMK A01 T02730138  RH  044%=      5-min Rain = 0
KMC1 222114Z 13006G11KT 27/14 A2996 RMK A01 T02710140  RH  045%=      5-min Rain = 0
KMC1 222115Z 14009KT 27/14 A2996 RMK A01 T02700141  RH  045%=      5-min Rain = 0
KMC1 222116Z 14009KT 27/14 A2996 RMK A01 T02700141  RH  045%=      5-min Rain = 0
KMC1 222117Z 12010G15KT 27/14 A2996 RMK A01 T02690141  RH  045%=      5-min Rain = 0
KMC1 222118Z 11011KT 27/14 A2996 RMK A01 T02670137  RH  045%=      5-min Rain = 0
KMC1 222119Z 12008KT 26/14 A2996 RMK A01 T02640137  RH  045%=      5-min Rain = 0
KMC1 222120Z 12008KT 26/14 A2996 RMK A01 T02620137  RH  046%=      5-min Rain = 0
KMC1 222121Z 11007G12KT 26/14 A2997 RMK A01 T02620138  RH  046%=      5-min Rain = 0
KMC1 222122Z 13009KT 26/14 A2997 RMK A01 T02610138  RH  047%=      5-min Rain = 0
KMC1 222123Z 12008KT 26/14 A2997 RMK A01 T02600137  RH  047%=      5-min Rain = 0
KMC1 222124Z 13007KT 26/14 A2996 RMK A01 T02600138  RH  047%=      5-min Rain = 0
KMC1 222125Z 16007KT 26/14 A2996 RMK A01 T02590137  RH  047%=      5-min Rain = 0
KMC1 222126Z 15007KT 26/13 A2996 RMK A01 T02590134  RH  046%=      5-min Rain = 0
KMC1 222127Z 15008KT 26/14 A2996 RMK A01 T02590135  RH  046%=      5-min Rain = 0
KMC1 222128Z 14006KT 26/14 A2996 RMK A01 T02600135  RH  046%=      5-min Rain = 0
KMC1 222129Z 15005KT 26/14 A2996 RMK A01 T02600137  RH  047%=      5-min Rain = 0
KMC1 222130Z 15005KT 26/14 A2996 RMK A01 T02610139  RH  047%=      5-min Rain = 0
KMC1 222131Z 16006KT 26/14 A2996 RMK A01 T02640139  RH  046%=      5-min Rain = 0
KMC1 222132Z 17005KT 27/14 A2996 RMK A01 T02650136  RH  045%=      5-min Rain = 0
KMC1 222133Z 17005KT 27/14 A2996 RMK A01 T02660138  RH  045%=      5-min Rain = 0
KMC1 222134Z 16008KT 27/14 A2996 RMK A01 T02670137  RH  045%=      5-min Rain = 0
KMC1 222135Z 17008KT 27/14 A2996 RMK A01 T02670139  RH  045%=      5-min Rain = 0
KMC1 222136Z 17007KT 27/14 A2996 RMK A01 T02670138  RH  045%=      5-min Rain = 0
KMC1 222137Z 15007KT 27/14 A2996 RMK A01 T02660140  RH  046%=      5-min Rain = 0
KMC1 222138Z 14008G13KT 27/14 A2996 RMK A01 T02660141  RH  046%=      5-min Rain = 0
KMC1 222139Z 14008KT 27/14 A2996 RMK A01 T02670141  RH  046%=      5-min Rain = 0
KMC1 222140Z 12007KT 27/14 A2996 RMK A01 T02660141  RH  046%=      5-min Rain = 0
KMC1 222141Z 17006KT 27/14 A2996 RMK A01 T02660141  RH  046%=      5-min Rain = 0
KMC1 222142Z 12006KT 26/14 A2996 RMK A01 T02640141  RH  047%=      5-min Rain = 0
KMC1 222143Z 12005KT 26/14 A2996 RMK A01 T02640142  RH  047%=      5-min Rain = 0
KMC1 222144Z 12008KT 26/14 A2996 RMK A01 T02630141  RH  047%=      5-min Rain = 0
KMC1 222145Z 12006KT 26/14 A2996 RMK A01 T02620142  RH  047%=      5-min Rain = 0
KMC1 222146Z 13006KT 26/14 A2996 RMK A01 T02620144  RH  048%=      5-min Rain = 0
KMC1 222147Z 14006KT 26/14 A2996 RMK A01 T02630142  RH  047%=      5-min Rain = 0
KMC1 222148Z 14009KT 26/14 A2996 RMK A01 T02630142  RH  047%=      5-min Rain = 0
KMC1 222149Z 15009G15KT 26/14 A2996 RMK A01 T02630142  RH  047%=      5-min Rain = 0
KMC1 222150Z 12007G12KT 26/14 A2996 RMK A01 T02620141  RH  047%=      5-min Rain = 0
KMC1 222151Z 14010G16KT 26/14 A2996 RMK A01 T02620142  RH  048%=      5-min Rain = 0
KMC1 222152Z 14012KT 26/14 A2996 RMK A01 T02610140  RH  047%=      5-min Rain = 0
KMC1 222153Z 13009G14KT 26/14 A2996 RMK A01 T02600140  RH  047%=      5-min Rain = 0
KMC1 222154Z 13009KT 26/14 A2996 RMK A01 T02590139  RH  048%=      5-min Rain = 0
KMC1 222155Z 14008KT 26/14 A2996 RMK A01 T02580139  RH  048%=      5-min Rain = 0
KMC1 222156Z 16007KT 26/14 A2996 RMK A01 T02580141  RH  048%=      5-min Rain = 0
KMC1 222157Z 14007KT 26/14 A2996 RMK A01 T02580140  RH  048%=      5-min Rain = 0
KMC1 222158Z 13005KT 26/14 A2996 RMK A01 T02580141  RH  048%=      5-min Rain = 0
KMC1 222159Z 10010G17KT 26/14 A2995 RMK A01 T02580143  RH  049%=      5-min Rain = 0
KMC1 222200Z 15006KT 26/14 A2995 RMK A01 T02580143  RH  049%=      5-min Rain = 0
KMC1 222201Z 13008KT 26/14 A2996 RMK A01 T02580142  RH  049%=      5-min Rain = 0
KMC1 222202Z 14007KT 26/14 A2995 RMK A01 T02580143  RH  049%=      5-min Rain = 0
KMC1 222203Z 13011KT 26/14 A2995 RMK A01 T02580142  RH  049%=      5-min Rain = 0
KMC1 222204Z 14011G16KT 26/14 A2995 RMK A01 T02570141  RH  049%=      5-min Rain = 0
KMC1 222205Z 12009KT 26/14 A2995 RMK A01 T02570141  RH  049%=      5-min Rain = 0
KMC1 222206Z 12012KT 26/14 A2995 RMK A01 T02560140  RH  049%=      5-min Rain = 0
KMC1 222207Z 12011KT 26/14 A2995 RMK A01 T02550139  RH  049%=      5-min Rain = 0
KMC1 222208Z 12011KT 25/14 A2995 RMK A01 T02540139  RH  049%=      5-min Rain = 0
KMC1 222209Z 13011KT 25/14 A2995 RMK A01 T02530139  RH  049%=      5-min Rain = 0
KMC1 222210Z 13008KT 25/14 A2995 RMK A01 T02520139  RH  049%=      5-min Rain = 0
KMC1 222211Z 12012KT 25/14 A2995 RMK A01 T02520139  RH  050%=      5-min Rain = 0
KMC1 222212Z 11011KT 25/14 A2995 RMK A01 T02520138  RH  049%=      5-min Rain = 0
KMC1 222213Z 12011KT 25/14 A2995 RMK A01 T02520139  RH  049%=      5-min Rain = 0
KMC1 222214Z 12010KT 25/14 A2996 RMK A01 T02520139  RH  050%=      5-min Rain = 0
KMC1 222215Z 12011KT 25/14 A2996 RMK A01 T02520139  RH  050%=      5-min Rain = 0
KMC1 222216Z 10009G15KT 25/14 A2996 RMK A01 T02520140  RH  050%=      5-min Rain = 0
KMC1 222217Z 11010G16KT 25/14 A2995 RMK A01 T02520141  RH  050%=      5-min Rain = 0
KMC1 222218Z 12012KT 25/14 A2996 RMK A01 T02520141  RH  050%=      5-min Rain = 0
KMC1 222219Z 14009KT 25/14 A2996 RMK A01 T02520141  RH  050%=      5-min Rain = 0
KMC1 222220Z 15006KT 25/14 A2996 RMK A01 T02530143  RH  050%=      5-min Rain = 0
KMC1 222221Z 13009KT 25/14 A2996 RMK A01 T02540144  RH  050%=      5-min Rain = 0
KMC1 222222Z 14009G14KT 26/14 A2996 RMK A01 T02550142  RH  050%=      5-min Rain = 0
KMC1 222223Z 14009KT 26/14 A2996 RMK A01 T02550142  RH  050%=      5-min Rain = 0
KMC1 222224Z 14005KT 26/14 A2996 RMK A01 T02550142  RH  050%=      5-min Rain = 0
KMC1 222225Z 13006KT 25/14 A2996 RMK A01 T02540143  RH  050%=      5-min Rain = 0
KMC1 222226Z 13010KT 26/14 A2996 RMK A01 T02550141  RH  049%=      5-min Rain = 0
KMC1 222227Z 12010KT 25/14 A2996 RMK A01 T02540140  RH  049%=      5-min Rain = 0
KMC1 222228Z 13009KT 25/14 A2996 RMK A01 T02530140  RH  050%=      5-min Rain = 0
KMC1 222229Z 13009KT 25/14 A2996 RMK A01 T02520141  RH  050%=      5-min Rain = 0
KMC1 222230Z 12007KT 25/14 A2996 RMK A01 T02520141  RH  050%=      5-min Rain = 0
KMC1 222231Z 14009KT 25/14 A2996 RMK A01 T02520141  RH  050%=      5-min Rain = 0
KMC1 222232Z 14010G16KT 25/14 A2996 RMK A01 T02520142  RH  051%=      5-min Rain = 0
KMC1 222233Z 15009KT 25/14 A2996 RMK A01 T02520141  RH  050%=      5-min Rain = 0
KMC1 222234Z 14010KT 25/14 A2996 RMK A01 T02520142  RH  051%=      5-min Rain = 0
KMC1 222235Z 14007KT 25/14 A2996 RMK A01 T02520142  RH  050%=      5-min Rain = 0
KMC1 222236Z 14006KT 25/14 A2996 RMK A01 T02520143  RH  051%=      5-min Rain = 0
KMC1 222237Z 14009KT 25/14 A2996 RMK A01 T02520142  RH  051%=      5-min Rain = 0
KMC1 222238Z 14009KT 25/14 A2996 RMK A01 T02510141  RH  050%=      5-min Rain = 0
KMC1 222239Z 14009KT 25/14 A2996 RMK A01 T02510141  RH  051%=      5-min Rain = 0
KMC1 222240Z 15007G12KT 25/14 A2996 RMK A01 T02510141  RH  051%=      5-min Rain = 0
KMC1 222241Z 14011KT 25/14 A2996 RMK A01 T02500142  RH  051%=      5-min Rain = 0
KMC1 222242Z 15008KT 25/14 A2996 RMK A01 T02500140  RH  050%=      5-min Rain = 0
KMC1 222243Z 14008G13KT 25/14 A2996 RMK A01 T02490140  RH  051%=      5-min Rain = 0
KMC1 222244Z 13010KT 25/14 A2996 RMK A01 T02490140  RH  051%=      5-min Rain = 0
KMC1 222245Z 14009KT 25/14 A2996 RMK A01 T02480140  RH  051%=      5-min Rain = 0
KMC1 222246Z 14010KT 25/14 A2996 RMK A01 T02480140  RH  051%=      5-min Rain = 0
KMC1 222247Z 13011G17KT 25/14 A2996 RMK A01 T02480140  RH  051%=      5-min Rain = 0
KMC1 222248Z 14010G15KT 25/14 A2996 RMK A01 T02470139  RH  051%=      5-min Rain = 0
KMC1 222249Z 14008KT 25/14 A2996 RMK A01 T02470140  RH  051%=      5-min Rain = 0
KMC1 222250Z 14007G12KT 25/14 A2996 RMK A01 T02470140  RH  052%=      5-min Rain = 0
KMC1 222251Z 13011G16KT 25/14 A2996 RMK A01 T02460141  RH  052%=      5-min Rain = 0
KMC1 222252Z 12009KT 25/14 A2996 RMK A01 T02460140  RH  052%=      5-min Rain = 0
KMC1 222253Z 14008KT 25/14 A2996 RMK A01 T02460141  RH  052%=      5-min Rain = 0
KMC1 222254Z 13010KT 25/14 A2996 RMK A01 T02460142  RH  052%=      5-min Rain = 0
KMC1 222255Z 12008KT 25/14 A2996 RMK A01 T02450140  RH  052%=      5-min Rain = 0
KMC1 222256Z 13010KT 25/14 A2996 RMK A01 T02450141  RH  052%=      5-min Rain = 0
KMC1 222257Z 13011KT 24/14 A2996 RMK A01 T02440140  RH  052%=      5-min Rain = 0
KMC1 222258Z 13013KT 24/14 A2996 RMK A01 T02440140  RH  052%=      5-min Rain = 0
KMC1 222259Z 14012G17KT 24/14 A2996 RMK A01 T02430139  RH  052%=      5-min Rain = 0
KMC1 222300Z 13009G16KT 24/14 A2997 RMK A01 T02430138  RH  052%=      5-min Rain = 0
KMC1 222301Z 13014KT 24/14 A2997 RMK A01 T02420138  RH  052%=      5-min Rain = 0
KMC1 222302Z 13011KT 24/14 A2997 RMK A01 T02420138  RH  052%=      5-min Rain = 0
KMC1 222303Z 13009KT 24/14 A2997 RMK A01 T02410138  RH  052%=      5-min Rain = 0
KMC1 222304Z 13007KT 24/14 A2997 RMK A01 T02410139  RH  053%=      5-min Rain = 0
KMC1 222305Z 14011KT 24/14 A2997 RMK A01 T02410139  RH  053%=      5-min Rain = 0
KMC1 222306Z 14007G12KT 24/14 A2997 RMK A01 T02410139  RH  053%=      5-min Rain = 0
KMC1 222307Z 13008KT 24/14 A2997 RMK A01 T02410140  RH  053%=      5-min Rain = 0
KMC1 222308Z 14009KT 24/14 A2997 RMK A01 T02410139  RH  053%=      5-min Rain = 0
KMC1 222309Z 13011KT 24/14 A2997 RMK A01 T02400139  RH  053%=      5-min Rain = 0
KMC1 222310Z 13012KT 24/14 A2997 RMK A01 T02400138  RH  053%=      5-min Rain = 0
KMC1 222311Z 14010G16KT 24/14 A2997 RMK A01 T02390138  RH  053%=      5-min Rain = 0
KMC1 222312Z 14011KT 24/14 A2997 RMK A01 T02390137  RH  053%=      5-min Rain = 0
KMC1 222313Z 14010KT 24/14 A2997 RMK A01 T02390137  RH  053%=      5-min Rain = 0
KMC1 222314Z 15008KT 24/14 A2997 RMK A01 T02390138  RH  053%=      5-min Rain = 0
KMC1 222315Z 13012G17KT 24/14 A2997 RMK A01 T02390138  RH  053%=      5-min Rain = 0
KMC1 222316Z 13009G14KT 24/14 A2997 RMK A01 T02380137  RH  053%=      5-min Rain = 0
KMC1 222317Z 13009KT 24/14 A2997 RMK A01 T02390138  RH  053%=      5-min Rain = 0
KMC1 222318Z 13009KT 24/14 A2997 RMK A01 T02380138  RH  053%=      5-min Rain = 0
KMC1 222319Z 14006G14KT 24/14 A2997 RMK A01 T02380139  RH  054%=      5-min Rain = 0
KMC1 222320Z 13012KT 24/14 A2997 RMK A01 T02380139  RH  054%=      5-min Rain = 0
KMC1 222321Z 13009KT 24/14 A2997 RMK A01 T02380139  RH  054%=      5-min Rain = 0
KMC1 222322Z 14009G14KT 24/14 A2997 RMK A01 T02380140  RH  054%=      5-min Rain = 0
KMC1 222323Z 14011KT 24/14 A2997 RMK A01 T02370140  RH  054%=      5-min Rain = 0
KMC1 222324Z 14010KT 24/14 A2997 RMK A01 T02370140  RH  054%=      5-min Rain = 0
KMC1 222325Z 13009KT 24/14 A2997 RMK A01 T02370140  RH  055%=      5-min Rain = 0
KMC1 222326Z 13011KT 24/14 A2997 RMK A01 T02370140  RH  054%=      5-min Rain = 0
KMC1 222327Z 14009KT 24/14 A2997 RMK A01 T02370140  RH  054%=      5-min Rain = 0
KMC1 222328Z 14008KT 24/14 A2997 RMK A01 T02370140  RH  054%=      5-min Rain = 0
KMC1 222329Z 15008KT 24/14 A2997 RMK A01 T02370140  RH  055%=      5-min Rain = 0
KMC1 222330Z 15007KT 24/14 A2997 RMK A01 T02370140  RH  055%=      5-min Rain = 0
KMC1 222331Z 15007KT 24/14 A2998 RMK A01 T02370141  RH  055%=      5-min Rain = 0
KMC1 222332Z 15007KT 24/14 A2998 RMK A01 T02370140  RH  054%=      5-min Rain = 0
KMC1 222333Z 15008KT 24/14 A2997 RMK A01 T02370140  RH  054%=      5-min Rain = 0
KMC1 222334Z 16007KT 24/14 A2997 RMK A01 T02370140  RH  055%=      5-min Rain = 0
KMC1 222335Z 15005G10KT 24/14 A2997 RMK A01 T02370141  RH  055%=      5-min Rain = 0
KMC1 222336Z 15005KT 24/14 A2997 RMK A01 T02370141  RH  055%=      5-min Rain = 0
KMC1 222337Z 14005KT 24/14 A2997 RMK A01 T02370140  RH  055%=      5-min Rain = 0
KMC1 222338Z 14003KT 24/14 A2997 RMK A01 T02370141  RH  055%=      5-min Rain = 0
KMC1 222339Z 15004KT 24/14 A2997 RMK A01 T02370142  RH  055%=      5-min Rain = 0
KMC1 222340Z 14005KT 24/14 A2997 RMK A01 T02370142  RH  055%=      5-min Rain = 0
KMC1 222341Z 14004KT 24/14 A2997 RMK A01 T02370141  RH  055%=      5-min Rain = 0
KMC1 222342Z 16005KT 24/14 A2997 RMK A01 T02370141  RH  055%=      5-min Rain = 0
KMC1 222343Z 16004KT 24/14 A2997 RMK A01 T02360141  RH  055%=      5-min Rain = 0
KMC1 222344Z 15004KT 24/14 A2997 RMK A01 T02360141  RH  055%=      5-min Rain = 0
KMC1 222345Z 15007KT 24/14 A2997 RMK A01 T02360140  RH  055%=      5-min Rain = 0
KMC1 222346Z 15009KT 24/14 A2997 RMK A01 T02360140  RH  055%=      5-min Rain = 0
KMC1 222347Z 13007KT 24/14 A2997 RMK A01 T02350140  RH  055%=      5-min Rain = 0
KMC1 222348Z 15009KT 24/14 A2997 RMK A01 T02350140  RH  055%=      5-min Rain = 0
KMC1 222349Z 14009G14KT 24/14 A2997 RMK A01 T02350140  RH  055%=      5-min Rain = 0
KMC1 222350Z 14008G13KT 24/14 A2997 RMK A01 T02350139  RH  055%=      5-min Rain = 0
KMC1 222351Z 14006KT 23/14 A2997 RMK A01 T02340140  RH  055%=      5-min Rain = 0
KMC1 222352Z 15005KT 23/14 A2997 RMK A01 T02340140  RH  055%=      5-min Rain = 0
KMC1 222353Z 15007KT 23/14 A2997 RMK A01 T02340140  RH  056%=      5-min Rain = 0
KMC1 222354Z 15007KT 23/14 A2997 RMK A01 T02340140  RH  056%=      5-min Rain = 0
KMC1 222355Z 16007KT 23/14 A2997 RMK A01 T02330140  RH  056%=      5-min Rain = 0
KMC1 222356Z 14008KT 23/14 A2997 RMK A01 T02340140  RH  056%=      5-min Rain = 0
KMC1 222357Z 16007KT 23/14 A2997 RMK A01 T02330140  RH  056%=      5-min Rain = 0
KMC1 222358Z 14005KT 23/14 A2997 RMK A01 T02330140  RH  056%=      5-min Rain = 0
KMC1 222359Z 15006KT 23/14 A2997 RMK A01 T02330140  RH  056%=      5-min Rain = 0
KMC1 230000Z 16009KT 23/14 A2997 RMK A01 T02330141  RH  056%=      5-min Rain = 0
KMC1 230001Z 15007KT 23/14 A2997 RMK A01 T02330140  RH  056%=      5-min Rain = 0
KMC1 230002Z 16005KT 23/14 A2997 RMK A01 T02320140  RH  056%=      5-min Rain = 0
KMC1 230003Z 14003KT 23/14 A2997 RMK A01 T02320141  RH  056%=      5-min Rain = 0
KMC1 230004Z 15004KT 23/14 A2997 RMK A01 T02320141  RH  057%=      5-min Rain = 0
KMC1 230005Z 15005KT 23/14 A2997 RMK A01 T02320141  RH  057%=      5-min Rain = 0
KMC1 230006Z 16004KT 23/14 A2997 RMK A01 T02310141  RH  057%=      5-min Rain = 0
KMC1 230007Z 14005G11KT 23/14 A2997 RMK A01 T02310142  RH  057%=      5-min Rain = 0
KMC1 230008Z 14008KT 23/14 A2997 RMK A01 T02310141  RH  057%=      5-min Rain = 0
KMC1 230009Z 16007KT 23/14 A2997 RMK A01 T02310140  RH  057%=      5-min Rain = 0
KMC1 230010Z 15006KT 23/14 A2997 RMK A01 T02310141  RH  057%=      5-min Rain = 0
KMC1 230011Z 15006KT 23/14 A2997 RMK A01 T02300141  RH  057%=      5-min Rain = 0
KMC1 230012Z 14006KT 23/14 A2997 RMK A01 T02310141  RH  057%=      5-min Rain = 0
KMC1 230013Z 14007G12KT 23/14 A2997 RMK A01 T02300141  RH  057%=      5-min Rain = 0
KMC1 230014Z 15007KT 23/14 A2997 RMK A01 T02300140  RH  057%=      5-min Rain = 0
KMC1 230015Z 16005KT 23/14 A2997 RMK A01 T02300140  RH  057%=      5-min Rain = 0
KMC1 230016Z 15004KT 23/14 A2997 RMK A01 T02300141  RH  057%=      5-min Rain = 0
KMC1 230017Z 15004KT 23/14 A2997 RMK A01 T02300142  RH  057%=      5-min Rain = 0
KMC1 230018Z 16008KT 23/14 A2997 RMK A01 T02300142  RH  057%=      5-min Rain = 0
KMC1 230019Z 16005KT 23/14 A2997 RMK A01 T02290141  RH  057%=      5-min Rain = 0
KMC1 230020Z 16006KT 23/14 A2997 RMK A01 T02300141  RH  058%=      5-min Rain = 0
KMC1 230021Z 17005KT 23/14 A2997 RMK A01 T02290142  RH  058%=      5-min Rain = 0
KMC1 230022Z 17007KT 23/14 A2997 RMK A01 T02300142  RH  058%=      5-min Rain = 0
KMC1 230023Z 16006KT 23/14 A2997 RMK A01 T02290142  RH  058%=      5-min Rain = 0
KMC1 230024Z 16007KT 23/14 A2997 RMK A01 T02290142  RH  058%=      5-min Rain = 0
KMC1 230025Z 16007KT 23/14 A2997 RMK A01 T02290141  RH  058%=      5-min Rain = 0
KMC1 230026Z 16005KT 23/14 A2997 RMK A01 T02290142  RH  058%=      5-min Rain = 0
KMC1 230027Z 17005KT 23/14 A2998 RMK A01 T02290142  RH  058%=      5-min Rain = 0
KMC1 230028Z 17004KT 23/14 A2998 RMK A01 T02280142  RH  058%=      5-min Rain = 0
KMC1 230029Z 17005KT 23/14 A2998 RMK A01 T02290143  RH  058%=      5-min Rain = 0
KMC1 230030Z 18006KT 23/14 A2998 RMK A01 T02280143  RH  058%=      5-min Rain = 0
KMC1 230031Z 19007KT 23/14 A2998 RMK A01 T02280141  RH  058%=      5-min Rain = 0
KMC1 230032Z 20006KT 23/14 A2998 RMK A01 T02280141  RH  058%=      5-min Rain = 0
KMC1 230033Z 19005KT 23/14 A2999 RMK A01 T02280142  RH  058%=      5-min Rain = 0
KMC1 230034Z 19004KT 23/14 A2999 RMK A01 T02280142  RH  058%=      5-min Rain = 0
KMC1 230035Z 18006KT 23/14 A2999 RMK A01 T02280143  RH  058%=      5-min Rain = 0
KMC1 230036Z 18005KT 23/14 A2999 RMK A01 T02280142  RH  058%=      5-min Rain = 0
KMC1 230037Z 18006KT 23/14 A2999 RMK A01 T02280142  RH  059%=      5-min Rain = 0
KMC1 230038Z 19007KT 23/14 A2999 RMK A01 T02280143  RH  058%=      5-min Rain = 0
KMC1 230039Z 17008KT 23/14 A2999 RMK A01 T02280142  RH  059%=      5-min Rain = 0
KMC1 230040Z 17006KT 23/14 A2999 RMK A01 T02280142  RH  059%=      5-min Rain = 0
KMC1 230041Z 17005KT 23/14 A2999 RMK A01 T02280143  RH  059%=      5-min Rain = 0
KMC1 230042Z 18008KT 23/14 A2999 RMK A01 T02270143  RH  059%=      5-min Rain = 0
KMC1 230043Z 17007KT 23/14 A2999 RMK A01 T02270142  RH  059%=      5-min Rain = 0
KMC1 230044Z 17006G11KT 23/14 A2999 RMK A01 T02270142  RH  059%=      5-min Rain = 0
KMC1 230045Z 17008KT 23/14 A2999 RMK A01 T02270142  RH  059%=      5-min Rain = 0
KMC1 230046Z 16009KT 23/14 A2999 RMK A01 T02270142  RH  058%=      5-min Rain = 0
KMC1 230047Z 17010KT 23/14 A2999 RMK A01 T02270141  RH  058%=      5-min Rain = 0
KMC1 230048Z 16006KT 23/14 A2999 RMK A01 T02270142  RH  058%=      5-min Rain = 0
KMC1 230049Z 16007KT 23/14 A2999 RMK A01 T02270142  RH  059%=      5-min Rain = 0
KMC1 230050Z 16007KT 23/14 A2999 RMK A01 T02270142  RH  059%=      5-min Rain = 0
KMC1 230051Z 17006KT 23/14 A2999 RMK A01 T02270142  RH  059%=      5-min Rain = 0
KMC1 230052Z 18006KT 23/14 A2999 RMK A01 T02270142  RH  059%=      5-min Rain = 0
KMC1 230053Z 18006KT 23/14 A2999 RMK A01 T02270142  RH  059%=      5-min Rain = 0
KMC1 230054Z 17004KT 23/14 A2999 RMK A01 T02270143  RH  059%=      5-min Rain = 0
KMC1 230055Z 18004KT 23/14 A2999 RMK A01 T02260143  RH  059%=      5-min Rain = 0
KMC1 230056Z 18006KT 23/14 A30 RMK A01 T02260143  RH  059%=      5-min Rain = 0
KMC1 230057Z 19007KT 23/14 A30 RMK A01 T02260143  RH  059%=      5-min Rain = 0
KMC1 230058Z 17005KT 23/14 A30 RMK A01 T02260142  RH  059%=      5-min Rain = 0
KMC1 230059Z 17004KT 23/14 A30 RMK A01 T02260142  RH  059%=      5-min Rain = 0
KMC1 230100Z 17004KT 23/14 A30 RMK A01 T02250142  RH  059%=      5-min Rain = 0
KMC1 230101Z 17006KT 23/14 A30 RMK A01 T02250142  RH  059%=      5-min Rain = 0
KMC1 230102Z 17007KT 23/14 A30 RMK A01 T02250142  RH  059%=      5-min Rain = 0
KMC1 230103Z 16007KT 23/14 A30 RMK A01 T02250142  RH  059%=      5-min Rain = 0
KMC1 230104Z 17007KT 23/14 A30 RMK A01 T02250142  RH  059%=      5-min Rain = 0
KMC1 230105Z 17006KT 23/14 A30 RMK A01 T02250142  RH  059%=      5-min Rain = 0
KMC1 230106Z 17007KT 22/14 A30 RMK A01 T02240141  RH  059%=      5-min Rain = 0
KMC1 230107Z 17006KT 22/14 A30 RMK A01 T02240141  RH  059%=      5-min Rain = 0
KMC1 230108Z 17005KT 22/14 A30 RMK A01 T02240142  RH  059%=      5-min Rain = 0
KMC1 230109Z 17005KT 22/14 A30 RMK A01 T02240142  RH  060%=      5-min Rain = 0
KMC1 230110Z 18006KT 22/14 A30 RMK A01 T02240142  RH  060%=      5-min Rain = 0
KMC1 230111Z 17006KT 22/14 A30 RMK A01 T02230141  RH  060%=      5-min Rain = 0
KMC1 230112Z 17006KT 22/14 A30 RMK A01 T02230142  RH  060%=      5-min Rain = 0
KMC1 230113Z 17006KT 22/14 A3001 RMK A01 T02230142  RH  060%=      5-min Rain = 0
KMC1 230114Z 16005KT 22/14 A3001 RMK A01 T02230141  RH  060%=      5-min Rain = 0
KMC1 230115Z 17005G10KT 22/14 A3001 RMK A01 T02230142  RH  060%=      5-min Rain = 0
KMC1 230116Z 17006KT 22/14 A3001 RMK A01 T02230141  RH  060%=      5-min Rain = 0
KMC1 230117Z 17006KT 22/14 A3001 RMK A01 T02230142  RH  060%=      5-min Rain = 0
KMC1 230118Z 17005KT 22/14 A3001 RMK A01 T02230141  RH  060%=      5-min Rain = 0
KMC1 230119Z 17006KT 22/14 A3001 RMK A01 T02220141  RH  060%=      5-min Rain = 0
KMC1 230120Z 17006KT 22/14 A3001 RMK A01 T02230141  RH  060%=      5-min Rain = 0
KMC1 230121Z 15005KT 22/14 A3001 RMK A01 T02220141  RH  060%=      5-min Rain = 0
KMC1 230122Z 17008KT 22/14 A3001 RMK A01 T02220142  RH  060%=      5-min Rain = 0
KMC1 230123Z 17007KT 22/14 A3001 RMK A01 T02220141  RH  060%=      5-min Rain = 0
KMC1 230124Z 15006KT 22/14 A3001 RMK A01 T02220141  RH  060%=      5-min Rain = 0
KMC1 230125Z 15006KT 22/14 A3001 RMK A01 T02220141  RH  060%=      5-min Rain = 0
KMC1 230126Z 17007KT 22/14 A3001 RMK A01 T02220141  RH  060%=      5-min Rain = 0
KMC1 230127Z 17009G14KT 22/14 A3001 RMK A01 T02220142  RH  060%=      5-min Rain = 0
KMC1 230128Z 16007KT 22/14 A3001 RMK A01 T02220141  RH  060%=      5-min Rain = 0
KMC1 230129Z 17008KT 22/14 A3001 RMK A01 T02220141  RH  060%=      5-min Rain = 0
KMC1 230130Z 17009KT 22/14 A3001 RMK A01 T02220141  RH  060%=      5-min Rain = 0
KMC1 230131Z 17009KT 22/14 A3001 RMK A01 T02220142  RH  060%=      5-min Rain = 0
KMC1 230132Z 16008G13KT 22/14 A3001 RMK A01 T02220142  RH  060%=      5-min Rain = 0
KMC1 230133Z 15006KT 22/14 A3001 RMK A01 T02220142  RH  060%=      5-min Rain = 0
KMC1 230134Z 16006KT 22/14 A3001 RMK A01 T02220142  RH  061%=      5-min Rain = 0
KMC1 230135Z 16007KT 22/14 A3001 RMK A01 T02210142  RH  061%=      5-min Rain = 0
KMC1 230136Z 16006KT 22/14 A3001 RMK A01 T02210142  RH  061%=      5-min Rain = 0
KMC1 230137Z 16005KT 22/14 A3001 RMK A01 T02210142  RH  061%=      5-min Rain = 0
KMC1 230138Z 16005KT 22/14 A3001 RMK A01 T02210142  RH  061%=      5-min Rain = 0
KMC1 230139Z 15005KT 22/14 A3001 RMK A01 T02200142  RH  061%=      5-min Rain = 0
KMC1 230140Z 14004KT 22/14 A3001 RMK A01 T02200142  RH  061%=      5-min Rain = 0
KMC1 230141Z 14005KT 22/14 A3001 RMK A01 T02200142  RH  061%=      5-min Rain = 0
KMC1 230142Z 15006KT 22/14 A3001 RMK A01 T02190142  RH  061%=      5-min Rain = 0
KMC1 230143Z 17006KT 22/14 A3001 RMK A01 T02190142  RH  062%=      5-min Rain = 0
KMC1 230144Z 15006KT 22/14 A3001 RMK A01 T02200143  RH  062%=      5-min Rain = 0
KMC1 230145Z 15005KT 22/14 A3001 RMK A01 T02190142  RH  062%=      5-min Rain = 0
KMC1 230146Z 15007KT 22/14 A3001 RMK A01 T02190143  RH  062%=      5-min Rain = 0
KMC1 230147Z 16009KT 22/14 A3001 RMK A01 T02190142  RH  062%=      5-min Rain = 0
KMC1 230148Z 16008KT 22/14 A3001 RMK A01 T02190142  RH  061%=      5-min Rain = 0
KMC1 230149Z 16009KT 22/14 A3001 RMK A01 T02190142  RH  061%=      5-min Rain = 0
KMC1 230150Z 15007KT 22/14 A3001 RMK A01 T02190142  RH  061%=      5-min Rain = 0
KMC1 230151Z 15006KT 22/14 A3001 RMK A01 T02190142  RH  061%=      5-min Rain = 0
KMC1 230152Z 16007KT 22/14 A3001 RMK A01 T02190142  RH  061%=      5-min Rain = 0
KMC1 230153Z 16010KT 22/14 A3001 RMK A01 T02190142  RH  061%=      5-min Rain = 0
KMC1 230154Z 15007KT 22/14 A3001 RMK A01 T02190142  RH  061%=      5-min Rain = 0
KMC1 230155Z 15006KT 22/14 A3001 RMK A01 T02190142  RH  061%=      5-min Rain = 0
KMC1 230156Z 16007KT 22/14 A3001 RMK A01 T02190142  RH  061%=      5-min Rain = 0
KMC1 230157Z 16008KT 22/14 A3001 RMK A01 T02190142  RH  061%=      5-min Rain = 0
KMC1 230158Z 16010KT 22/14 A3001 RMK A01 T02190142  RH  061%=      5-min Rain = 0
KMC1 230159Z 16008KT 22/14 A3001 RMK A01 T02190142  RH  061%=      5-min Rain = 0
KMC1 230200Z 16006KT 22/14 A3001 RMK A01 T02190142  RH  061%=      5-min Rain = 0
KMC1 230201Z 16007KT 22/14 A3001 RMK A01 T02190142  RH  061%=      5-min Rain = 0
KMC1 230202Z 15006KT 22/14 A3001 RMK A01 T02190142  RH  062%=      5-min Rain = 0
KMC1 230203Z 15007KT 22/14 A3001 RMK A01 T02190142  RH  062%=      5-min Rain = 0
KMC1 230204Z 16008KT 22/14 A3001 RMK A01 T02190142  RH  062%=      5-min Rain = 0
KMC1 230205Z 15008KT 22/14 A3001 RMK A01 T02180142  RH  062%=      5-min Rain = 0
KMC1 230206Z 16007KT 22/14 A3001 RMK A01 T02180142  RH  062%=      5-min Rain = 0
KMC1 230207Z 15006KT 22/14 A3001 RMK A01 T02180142  RH  062%=      5-min Rain = 0
KMC1 230208Z 15007KT 22/14 A3001 RMK A01 T02180142  RH  062%=      5-min Rain = 0
KMC1 230209Z 15007KT 22/14 A3001 RMK A01 T02180143  RH  062%=      5-min Rain = 0
KMC1 230210Z 15006KT 22/14 A3001 RMK A01 T02180142  RH  062%=      5-min Rain = 0
KMC1 230211Z 16008KT 22/14 A3001 RMK A01 T02180142  RH  062%=      5-min Rain = 0
KMC1 230212Z 15008KT 22/14 A3001 RMK A01 T02180142  RH  062%=      5-min Rain = 0
KMC1 230213Z 14006G11KT 22/14 A3001 RMK A01 T02180142  RH  062%=      5-min Rain = 0
KMC1 230214Z 15009KT 22/14 A30 RMK A01 T02180142  RH  062%=      5-min Rain = 0
KMC1 230215Z 15007KT 22/14 A30 RMK A01 T02180142  RH  062%=      5-min Rain = 0
KMC1 230216Z 16009G14KT 22/14 A3001 RMK A01 T02180142  RH  062%=      5-min Rain = 0
KMC1 230217Z 15010KT 22/14 A3001 RMK A01 T02180142  RH  062%=      5-min Rain = 0
KMC1 230218Z 15007KT 22/14 A3001 RMK A01 T02180143  RH  062%=      5-min Rain = 0
KMC1 230219Z 14008KT 22/14 A3001 RMK A01 T02180143  RH  062%=      5-min Rain = 0
KMC1 230220Z 16006KT 22/14 A3001 RMK A01 T02180142  RH  062%=      5-min Rain = 0
KMC1 230221Z 14005KT 22/14 A3001 RMK A01 T02180143  RH  062%=      5-min Rain = 0
KMC1 230222Z 15006G11KT 22/14 A3001 RMK A01 T02180143  RH  062%=      5-min Rain = 0
KMC1 230223Z 15007KT 22/14 A3001 RMK A01 T02170143  RH  063%=      5-min Rain = 0
KMC1 230224Z 14010G15KT 22/14 A3001 RMK A01 T02170143  RH  063%=      5-min Rain = 0
KMC1 230225Z 13009KT 22/14 A30 RMK A01 T02170143  RH  063%=      5-min Rain = 0
KMC1 230226Z 13008KT 22/14 A30 RMK A01 T02170143  RH  063%=      5-min Rain = 0
KMC1 230227Z 13009KT 22/14 A30 RMK A01 T02170143  RH  063%=      5-min Rain = 0
KMC1 230228Z 13008KT 22/14 A30 RMK A01 T02170143  RH  063%=      5-min Rain = 0
KMC1 230229Z 13011KT 22/14 A30 RMK A01 T02170143  RH  063%=      5-min Rain = 0
KMC1 230230Z 12008KT 22/14 A2999 RMK A01 T02160143  RH  063%=      5-min Rain = 0
KMC1 230231Z 12011KT 22/14 A2999 RMK A01 T02160143  RH  063%=      5-min Rain = 0
KMC1 230232Z 13011KT 22/14 A2999 RMK A01 T02160143  RH  063%=      5-min Rain = 0
KMC1 230233Z 14011KT 22/14 A2999 RMK A01 T02160143  RH  063%=      5-min Rain = 0
KMC1 230234Z 12009KT 22/14 A2999 RMK A01 T02160143  RH  063%=      5-min Rain = 0
KMC1 230235Z 13008KT 22/14 A2999 RMK A01 T02160143  RH  063%=      5-min Rain = 0
KMC1 230236Z 13010KT 22/14 A2999 RMK A01 T02150143  RH  063%=      5-min Rain = 0
KMC1 230237Z 12009KT 22/14 A2999 RMK A01 T02150143  RH  063%=      5-min Rain = 0
KMC1 230238Z 13009KT 22/14 A2999 RMK A01 T02150143  RH  064%=      5-min Rain = 0
KMC1 230239Z 13010KT 22/14 A2999 RMK A01 T02150143  RH  064%=      5-min Rain = 0
KMC1 230240Z 12009KT 22/14 A2999 RMK A01 T02150143  RH  064%=      5-min Rain = 0
KMC1 230241Z 11009KT 22/14 A2998 RMK A01 T02150143  RH  064%=      5-min Rain = 0
KMC1 230242Z 11009KT 21/14 A2998 RMK A01 T02140143  RH  064%=      5-min Rain = 0
KMC1 230243Z 12008KT 21/14 A2998 RMK A01 T02140143  RH  064%=      5-min Rain = 0
KMC1 230244Z 12008KT 21/14 A2998 RMK A01 T02140143  RH  064%=      5-min Rain = 0
KMC1 230245Z 11008KT 21/14 A2998 RMK A01 T02130143  RH  064%=      5-min Rain = 0
KMC1 230246Z 12008KT 21/14 A2998 RMK A01 T02130144  RH  064%=      5-min Rain = 0
KMC1 230247Z 13007KT 21/14 A2998 RMK A01 T02130144  RH  064%=      5-min Rain = 0
KMC1 230248Z 12007G12KT 21/14 A2998 RMK A01 T02130144  RH  065%=      5-min Rain = 0
KMC1 230249Z 12007KT 21/14 A2997 RMK A01 T02130144  RH  065%=      5-min Rain = 0
KMC1 230250Z 12010KT 21/14 A2997 RMK A01 T02120144  RH  065%=      5-min Rain = 0
KMC1 230251Z 13008KT 21/14 A2998 RMK A01 T02120144  RH  065%=      5-min Rain = 0
KMC1 230252Z 12009KT 21/14 A2998 RMK A01 T02120144  RH  065%=      5-min Rain = 0
KMC1 230253Z 12009KT 21/14 A2998 RMK A01 T02120144  RH  065%=      5-min Rain = 0
KMC1 230254Z 12006KT 21/14 A2997 RMK A01 T02120144  RH  065%=      5-min Rain = 0
KMC1 230255Z 12007KT 21/14 A2998 RMK A01 T02120144  RH  065%=      5-min Rain = 0
KMC1 230256Z 12009KT 21/14 A2997 RMK A01 T02110144  RH  065%=      5-min Rain = 0
KMC1 230257Z 12010KT 21/14 A2997 RMK A01 T02120144  RH  065%=      5-min Rain = 0
KMC1 230258Z 12009KT 21/14 A2997 RMK A01 T02110144  RH  065%=      5-min Rain = 0
KMC1 230259Z 12007KT 21/15 A2997 RMK A01 T02110145  RH  066%=      5-min Rain = 0
KMC1 230300Z 12007KT 21/14 A2997 RMK A01 T02110144  RH  066%=      5-min Rain = 0
KMC1 230301Z 12009KT 21/15 A2998 RMK A01 T02110145  RH  066%=      5-min Rain = 0
KMC1 230302Z 13007KT 21/15 A2998 RMK A01 T02110145  RH  066%=      5-min Rain = 0
KMC1 230303Z 13010KT 21/15 A2998 RMK A01 T02110145  RH  066%=      5-min Rain = 0
KMC1 230304Z 12007KT 21/15 A2998 RMK A01 T02110145  RH  066%=      5-min Rain = 0
KMC1 230305Z 13007KT 21/15 A2998 RMK A01 T02110145  RH  066%=      5-min Rain = 0
KMC1 230306Z 13007KT 21/15 A2998 RMK A01 T02100145  RH  066%=      5-min Rain = 0
KMC1 230307Z 12010KT 21/15 A2998 RMK A01 T02100145  RH  066%=      5-min Rain = 0
KMC1 230308Z 13010KT 21/15 A2998 RMK A01 T02100145  RH  066%=      5-min Rain = 0
KMC1 230309Z 13011KT 21/15 A2998 RMK A01 T02100145  RH  066%=      5-min Rain = 0
KMC1 230310Z 12009KT 21/15 A2998 RMK A01 T02100145  RH  066%=      5-min Rain = 0
KMC1 230311Z 13009KT 21/15 A2998 RMK A01 T02100145  RH  066%=      5-min Rain = 0
KMC1 230312Z 13010KT 21/15 A2998 RMK A01 T02100145  RH  067%=      5-min Rain = 0
KMC1 230313Z 13009G15KT 21/15 A2999 RMK A01 T02100146  RH  067%=      5-min Rain = 0
KMC1 230314Z 14009KT 21/15 A2999 RMK A01 T02090146  RH  067%=      5-min Rain = 0
KMC1 230315Z 14008KT 21/15 A2999 RMK A01 T02090146  RH  067%=      5-min Rain = 0
KMC1 230316Z 13008KT 21/15 A2999 RMK A01 T02090146  RH  067%=      5-min Rain = 0
KMC1 230317Z 12008KT 21/15 A2999 RMK A01 T02090146  RH  067%=      5-min Rain = 0
KMC1 230318Z 13008KT 21/15 A2999 RMK A01 T02090147  RH  068%=      5-min Rain = 0
KMC1 230319Z 14008G13KT 21/15 A2999 RMK A01 T02090147  RH  068%=      5-min Rain = 0
KMC1 230320Z 14007KT 21/15 A2999 RMK A01 T02090147  RH  068%=      5-min Rain = 0
KMC1 230321Z 14009KT 21/15 A2999 RMK A01 T02090147  RH  068%=      5-min Rain = 0
KMC1 230322Z 14008KT 21/15 A2999 RMK A01 T02080148  RH  068%=      5-min Rain = 0
KMC1 230323Z 13006G12KT 21/15 A2999 RMK A01 T02080148  RH  068%=      5-min Rain = 0
KMC1 230324Z 14009KT 21/15 A2999 RMK A01 T02080148  RH  068%=      5-min Rain = 0
KMC1 230325Z 13006KT 21/15 A2999 RMK A01 T02080148  RH  069%=      5-min Rain = 0
KMC1 230326Z 13009KT 21/15 A2999 RMK A01 T02070148  RH  069%=      5-min Rain = 0
KMC1 230327Z 14006KT 21/15 A2999 RMK A01 T02070148  RH  069%=      5-min Rain = 0
KMC1 230328Z 13008KT 21/15 A2999 RMK A01 T02070148  RH  069%=      5-min Rain = 0
KMC1 230329Z 14007KT 21/15 A2999 RMK A01 T02070148  RH  069%=      5-min Rain = 0
KMC1 230330Z 14007KT 21/15 A2999 RMK A01 T02070148  RH  069%=      5-min Rain = 0
KMC1 230331Z 14008G13KT 21/15 A2999 RMK A01 T02070149  RH  069%=      5-min Rain = 0
KMC1 230332Z 14010KT 21/15 A2999 RMK A01 T02060148  RH  069%=      5-min Rain = 0
KMC1 230333Z 14008KT 21/15 A2999 RMK A01 T02060148  RH  069%=      5-min Rain = 0
KMC1 230334Z 13008KT 21/15 A2999 RMK A01 T02060148  RH  069%=      5-min Rain = 0
KMC1 230335Z 14008KT 21/15 A2999 RMK A01 T02060149  RH  069%=      5-min Rain = 0
KMC1 230336Z 13007KT 21/15 A2999 RMK A01 T02060149  RH  070%=      5-min Rain = 0
KMC1 230337Z 13009KT 21/15 A30 RMK A01 T02060149  RH  070%=      5-min Rain = 0
KMC1 230338Z 13009KT 21/15 A30 RMK A01 T02060149  RH  070%=      5-min Rain = 0
KMC1 230339Z 14006G11KT 21/15 A30 RMK A01 T02050149  RH  070%=      5-min Rain = 0
KMC1 230340Z 14007G12KT 21/15 A30 RMK A01 T02050149  RH  070%=      5-min Rain = 0
KMC1 230341Z 13010KT 21/15 A30 RMK A01 T02050149  RH  070%=      5-min Rain = 0
KMC1 230342Z 14009KT 21/15 A30 RMK A01 T02050149  RH  070%=      5-min Rain = 0
KMC1 230343Z 12008KT 21/15 A30 RMK A01 T02050148  RH  070%=      5-min Rain = 0
KMC1 230344Z 12008KT 21/15 A30 RMK A01 T02050148  RH  070%=      5-min Rain = 0
KMC1 230345Z 13011KT 21/15 A30 RMK A01 T02050149  RH  070%=      5-min Rain = 0
KMC1 230346Z 13009KT 21/15 A30 RMK A01 T02050149  RH  070%=      5-min Rain = 0
KMC1 230347Z 13009KT 21/15 A30 RMK A01 T02050148  RH  070%=      5-min Rain = 0
KMC1 230348Z 14008KT 21/15 A30 RMK A01 T02050149  RH  070%=      5-min Rain = 0
KMC1 230349Z 14008KT 21/15 A30 RMK A01 T02050149  RH  070%=      5-min Rain = 0
KMC1 230350Z 13007KT 21/15 A30 RMK A01 T02050149  RH  070%=      5-min Rain = 0
KMC1 230351Z 13007KT 21/15 A30 RMK A01 T02050149  RH  070%=      5-min Rain = 0
KMC1 230352Z 13008KT 20/15 A2999 RMK A01 T02040149  RH  070%=      5-min Rain = 0
KMC1 230353Z 13008KT 20/15 A2999 RMK A01 T02040149  RH  070%=      5-min Rain = 0
KMC1 230354Z 13006KT 20/15 A2999 RMK A01 T02040149  RH  070%=      5-min Rain = 0
KMC1 230355Z 12009KT 20/15 A2999 RMK A01 T02040149  RH  071%=      5-min Rain = 0
KMC1 230356Z 13008KT 20/15 A2999 RMK A01 T02030148  RH  071%=      5-min Rain = 0
KMC1 230357Z 13009KT 20/15 A2999 RMK A01 T02030148  RH  071%=      5-min Rain = 0
KMC1 230358Z 13010KT 20/15 A2999 RMK A01 T02030149  RH  071%=      5-min Rain = 0
KMC1 230359Z 13009KT 20/15 A2999 RMK A01 T02030148  RH  071%=      5-min Rain = 0
KMC1 230400Z 13007KT 20/15 A2999 RMK A01 T02030149  RH  071%=      5-min Rain = 0
KMC1 230401Z 14008KT 20/15 A2999 RMK A01 T02030149  RH  071%=      5-min Rain = 0
KMC1 230402Z 13007KT 20/15 A2999 RMK A01 T02030149  RH  071%=      5-min Rain = 0
KMC1 230403Z 13007KT 20/15 A2999 RMK A01 T02020149  RH  071%=      5-min Rain = 0
KMC1 230404Z 14008G13KT 20/15 A2999 RMK A01 T02020149  RH  071%=      5-min Rain = 0
KMC1 230405Z 13008KT 20/15 A2999 RMK A01 T02020148  RH  071%=      5-min Rain = 0
KMC1 230406Z 13009KT 20/15 A30 RMK A01 T02020148  RH  071%=      5-min Rain = 0
KMC1 230407Z 14007KT 20/15 A30 RMK A01 T02020148  RH  071%=      5-min Rain = 0
KMC1 230408Z 14009KT 20/15 A30 RMK A01 T02020148  RH  071%=      5-min Rain = 0
KMC1 230409Z 14009KT 20/15 A30 RMK A01 T02020149  RH  071%=      5-min Rain = 0
KMC1 230410Z 14008KT 20/15 A30 RMK A01 T02020148  RH  071%=      5-min Rain = 0
KMC1 230411Z 14011KT 20/15 A30 RMK A01 T02020148  RH  071%=      5-min Rain = 0
KMC1 230412Z 15009KT 20/15 A30 RMK A01 T02020148  RH  071%=      5-min Rain = 0
KMC1 230413Z 15008G13KT 20/15 A30 RMK A01 T02020148  RH  071%=      5-min Rain = 0
KMC1 230414Z 14008KT 20/15 A30 RMK A01 T02020148  RH  071%=      5-min Rain = 0
KMC1 230415Z 15009G14KT 20/15 A30 RMK A01 T02020149  RH  071%=      5-min Rain = 0
KMC1 230416Z 14007KT 20/15 A3001 RMK A01 T02020148  RH  071%=      5-min Rain = 0
KMC1 230417Z 14007KT 20/15 A3001 RMK A01 T02020148  RH  071%=      5-min Rain = 0
KMC1 230418Z 15005KT 20/15 A3001 RMK A01 T02020149  RH  071%=      5-min Rain = 0
KMC1 230419Z 16005KT 20/15 A3001 RMK A01 T02020149  RH  071%=      5-min Rain = 0
KMC1 230420Z 15006KT 20/15 A3001 RMK A01 T02020149  RH  071%=      5-min Rain = 0
KMC1 230421Z 16004KT 20/15 A3001 RMK A01 T02020149  RH  072%=      5-min Rain = 0
KMC1 230422Z 16004KT 20/15 A3002 RMK A01 T02020149  RH  072%=      5-min Rain = 0
KMC1 230423Z 16006KT 20/15 A3002 RMK A01 T02020149  RH  072%=      5-min Rain = 0
KMC1 230424Z 17007KT 20/15 A3002 RMK A01 T02010149  RH  072%=      5-min Rain = 0
KMC1 230425Z 16005G10KT 20/15 A3002 RMK A01 T02010149  RH  072%=      5-min Rain = 0
KMC1 230426Z 16004KT 20/15 A3002 RMK A01 T02010149  RH  072%=      5-min Rain = 0
KMC1 230427Z 15004KT 20/15 A3002 RMK A01 T02010149  RH  072%=      5-min Rain = 0
KMC1 230428Z 15003KT 20/15 A3002 RMK A01 T02010149  RH  072%=      5-min Rain = 0
KMC1 230429Z 16004KT 20/15 A3002 RMK A01 T02010149  RH  072%=      5-min Rain = 0
KMC1 230430Z 16004KT 20/15 A3002 RMK A01 T02000149  RH  072%=      5-min Rain = 0
KMC1 230431Z 17005KT 20/15 A3002 RMK A01 T02010149  RH  072%=      5-min Rain = 0
KMC1 230432Z 16003KT 20/15 A3002 RMK A01 T02000149  RH  072%=      5-min Rain = 0
KMC1 230433Z 15003KT 20/15 A3002 RMK A01 T02000149  RH  072%=      5-min Rain = 0
KMC1 230434Z 15004KT 20/15 A3002 RMK A01 T02000149  RH  073%=      5-min Rain = 0
KMC1 230435Z 14004KT 20/15 A3002 RMK A01 T02000149  RH  073%=      5-min Rain = 0
KMC1 230436Z 16005KT 20/15 A3002 RMK A01 T01990149  RH  073%=      5-min Rain = 0
KMC1 230437Z 14003KT 20/15 A3002 RMK A01 T01990149  RH  073%=      5-min Rain = 0
KMC1 230438Z 14005KT 20/15 A3001 RMK A01 T01990149  RH  073%=      5-min Rain = 0
KMC1 230439Z 15003KT 20/15 A3001 RMK A01 T01990149  RH  073%=      5-min Rain = 0
KMC1 230440Z 14005KT 20/15 A3001 RMK A01 T01990149  RH  073%=      5-min Rain = 0
KMC1 230441Z 14004KT 20/15 A3001 RMK A01 T01990149  RH  073%=      5-min Rain = 0
KMC1 230442Z 15005KT 20/15 A3001 RMK A01 T01990149  RH  073%=      5-min Rain = 0
KMC1 230443Z 14004KT 20/15 A3001 RMK A01 T01980149  RH  073%=      5-min Rain = 0
KMC1 230444Z 14007KT 20/15 A3001 RMK A01 T01980149  RH  073%=      5-min Rain = 0
KMC1 230445Z 14006KT 20/15 A3001 RMK A01 T01980149  RH  073%=      5-min Rain = 0
KMC1 230446Z 14006KT 20/15 A3001 RMK A01 T01980149  RH  073%=      5-min Rain = 0
KMC1 230447Z 14005KT 20/15 A3001 RMK A01 T01980149  RH  073%=      5-min Rain = 0
KMC1 230448Z 14006KT 20/15 A3001 RMK A01 T01980149  RH  073%=      5-min Rain = 0
KMC1 230449Z 14008KT 20/15 A3001 RMK A01 T01980149  RH  073%=      5-min Rain = 0
KMC1 230450Z 14006KT 20/15 A30 RMK A01 T01980149  RH  073%=      5-min Rain = 0
KMC1 230451Z 13007KT 20/15 A30 RMK A01 T01980149  RH  073%=      5-min Rain = 0
KMC1 230452Z 14008KT 20/15 A30 RMK A01 T01980149  RH  073%=      5-min Rain = 0
KMC1 230453Z 14008KT 20/15 A30 RMK A01 T01980149  RH  073%=      5-min Rain = 0
KMC1 230454Z 14006KT 20/15 A30 RMK A01 T01980149  RH  073%=      5-min Rain = 0
KMC1 230455Z 12006KT 20/15 A30 RMK A01 T01980149  RH  074%=      5-min Rain = 0
KMC1 230456Z 12009KT 20/15 A2999 RMK A01 T01980150  RH  074%=      5-min Rain = 0
KMC1 230457Z 13008KT 20/15 A2999 RMK A01 T01980149  RH  074%=      5-min Rain = 0
KMC1 230458Z 12007KT 20/15 A2999 RMK A01 T01980150  RH  074%=      5-min Rain = 0
KMC1 230459Z 11007KT 20/15 A2999 RMK A01 T01980150  RH  074%=      5-min Rain = 0

Page generated in 0.0712 seconds.